Observation data for Fort McKavett on 05/25/2019      Previous  Date  Next       Current Mesonet Observations  Soil Data  Daily Summary Page  Observations in Plain Language
KMC1 250500Z 13009G16KT 23/19 A2996 RMK A01 T02320194  RH  079%=      5-min Rain = 0
KMC1 250501Z 13011G17KT 23/19 A2996 RMK A01 T02320194  RH  079%=      5-min Rain = 0
KMC1 250502Z 13007KT 23/19 A2996 RMK A01 T02320194  RH  079%=      5-min Rain = 0
KMC1 250503Z 14009G17KT 23/19 A2996 RMK A01 T02320194  RH  079%=      5-min Rain = 0
KMC1 250504Z 13014KT 23/19 A2996 RMK A01 T02320194  RH  079%=      5-min Rain = 0
KMC1 250505Z 14011KT 23/19 A2996 RMK A01 T02320194  RH  079%=      5-min Rain = 0
KMC1 250506Z 13009G15KT 23/19 A2996 RMK A01 T02320194  RH  079%=      5-min Rain = 0
KMC1 250507Z 13010KT 23/19 A2996 RMK A01 T02330194  RH  079%=      5-min Rain = 0
KMC1 250508Z 13011G16KT 23/20 A2996 RMK A01 T02330195  RH  079%=      5-min Rain = 0
KMC1 250509Z 13011G17KT 23/20 A2996 RMK A01 T02330195  RH  079%=      5-min Rain = 0
KMC1 250510Z 14010G16KT 23/20 A2996 RMK A01 T02330195  RH  079%=      5-min Rain = 0
KMC1 250511Z 14012KT 23/20 A2996 RMK A01 T02330195  RH  079%=      5-min Rain = 0
KMC1 250512Z 14013KT 23/20 A2996 RMK A01 T02330195  RH  079%=      5-min Rain = 0
KMC1 250513Z 14010KT 23/20 A2996 RMK A01 T02330195  RH  079%=      5-min Rain = 0
KMC1 250514Z 13009G15KT 23/20 A2996 RMK A01 T02340195  RH  079%=      5-min Rain = 0
KMC1 250515Z 14010G15KT 23/20 A2996 RMK A01 T02340195  RH  079%=      5-min Rain = 0
KMC1 250516Z 14009KT 23/20 A2996 RMK A01 T02340195  RH  079%=      5-min Rain = 0
KMC1 250517Z 15013G18KT 23/20 A2996 RMK A01 T02340195  RH  079%=      5-min Rain = 0
KMC1 250518Z 13014G19KT 23/20 A2995 RMK A01 T02340195  RH  079%=      5-min Rain = 0
KMC1 250519Z 14009KT 23/20 A2995 RMK A01 T02340195  RH  079%=      5-min Rain = 0
KMC1 250520Z 14011G20KT 23/20 A2995 RMK A01 T02340196  RH  079%=      5-min Rain = 0
KMC1 250521Z 13013G19KT 23/20 A2995 RMK A01 T02340195  RH  079%=      5-min Rain = 0
KMC1 250522Z 14013G18KT 23/20 A2995 RMK A01 T02340196  RH  079%=      5-min Rain = 0
KMC1 250523Z 14014KT 23/20 A2995 RMK A01 T02340195  RH  079%=      5-min Rain = 0
KMC1 250524Z 14012G17KT 23/20 A2995 RMK A01 T02340195  RH  079%=      5-min Rain = 0
KMC1 250525Z 14010G15KT 23/20 A2995 RMK A01 T02340195  RH  079%=      5-min Rain = 0
KMC1 250526Z 14011G16KT 23/20 A2995 RMK A01 T02340195  RH  079%=      5-min Rain = 0
KMC1 250527Z 13011G17KT 23/20 A2995 RMK A01 T02340195  RH  079%=      5-min Rain = 0
KMC1 250528Z 15011G16KT 23/20 A2995 RMK A01 T02340196  RH  079%=      5-min Rain = 0
KMC1 250529Z 15011G19KT 23/20 A2995 RMK A01 T02340196  RH  079%=      5-min Rain = 0
KMC1 250530Z 14013KT 23/20 A2995 RMK A01 T02340195  RH  079%=      5-min Rain = 0
KMC1 250531Z 13012G18KT 24/20 A2995 RMK A01 T02350196  RH  079%=      5-min Rain = 0
KMC1 250532Z 14010G17KT 23/20 A2995 RMK A01 T02340196  RH  079%=      5-min Rain = 0
KMC1 250533Z 14011G17KT 23/20 A2995 RMK A01 T02340196  RH  079%=      5-min Rain = 0
KMC1 250534Z 14012G17KT 23/20 A2995 RMK A01 T02340196  RH  079%=      5-min Rain = 0
KMC1 250535Z 15012G17KT 23/20 A2995 RMK A01 T02340196  RH  079%=      5-min Rain = 0
KMC1 250536Z 14010G17KT 23/20 A2995 RMK A01 T02340196  RH  079%=      5-min Rain = 0
KMC1 250537Z 15010G16KT 24/20 A2995 RMK A01 T02350196  RH  079%=      5-min Rain = 0
KMC1 250538Z 14011KT 24/20 A2995 RMK A01 T02350196  RH  079%=      5-min Rain = 0
KMC1 250539Z 14010G17KT 24/20 A2995 RMK A01 T02350196  RH  079%=      5-min Rain = 0
KMC1 250540Z 14011KT 24/20 A2996 RMK A01 T02350196  RH  079%=      5-min Rain = 0
KMC1 250541Z 13007KT 24/20 A2996 RMK A01 T02350197  RH  079%=      5-min Rain = 0
KMC1 250542Z 15010G17KT 23/20 A2996 RMK A01 T02340196  RH  079%=      5-min Rain = 0
KMC1 250543Z 15010G16KT 23/20 A2995 RMK A01 T02340197  RH  079%=      5-min Rain = 0
KMC1 250544Z 15011KT 23/20 A2996 RMK A01 T02340197  RH  079%=      5-min Rain = 0
KMC1 250545Z 14011KT 23/20 A2996 RMK A01 T02340197  RH  079%=      5-min Rain = 0
KMC1 250546Z 14011G16KT 23/20 A2996 RMK A01 T02340197  RH  079%=      5-min Rain = 0
KMC1 250547Z 14013G19KT 24/20 A2995 RMK A01 T02350197  RH  079%=      5-min Rain = 0
KMC1 250548Z 14010G16KT 24/20 A2996 RMK A01 T02350197  RH  079%=      5-min Rain = 0
KMC1 250549Z 14010G16KT 24/20 A2995 RMK A01 T02350197  RH  079%=      5-min Rain = 0
KMC1 250550Z 16010G16KT 24/20 A2996 RMK A01 T02350197  RH  079%=      5-min Rain = 0
KMC1 250551Z 14009G15KT 24/20 A2996 RMK A01 T02350197  RH  079%=      5-min Rain = 0
KMC1 250552Z 14009G14KT 24/20 A2996 RMK A01 T02350197  RH  079%=      5-min Rain = 0
KMC1 250553Z 14009KT 24/20 A2996 RMK A01 T02350198  RH  079%=      5-min Rain = 0
KMC1 250554Z 16008G13KT 24/20 A2996 RMK A01 T02350197  RH  079%=      5-min Rain = 0
KMC1 250555Z 15006KT 24/20 A2996 RMK A01 T02350198  RH  079%=      5-min Rain = 0
KMC1 250556Z 14008KT 24/20 A2996 RMK A01 T02350198  RH  079%=      5-min Rain = 0
KMC1 250557Z 15006KT 24/20 A2996 RMK A01 T02350198  RH  080%=      5-min Rain = 0
KMC1 250558Z 16007KT 24/20 A2996 RMK A01 T02350198  RH  080%=      5-min Rain = 0
KMC1 250559Z 15010KT 24/20 A2996 RMK A01 T02350198  RH  080%=      5-min Rain = 0
KMC1 250600Z 15008KT 24/20 A2996 RMK A01 T02350198  RH  080%=      5-min Rain = 0
KMC1 250601Z 15010KT 24/20 A2996 RMK A01 T02350198  RH  080%=      5-min Rain = 0
KMC1 250602Z 14012KT 24/20 A2996 RMK A01 T02350198  RH  080%=      5-min Rain = 0
KMC1 250603Z 15011G16KT 24/20 A2996 RMK A01 T02350198  RH  079%=      5-min Rain = 0
KMC1 250604Z 15010KT 24/20 A2996 RMK A01 T02360198  RH  079%=      5-min Rain = 0
KMC1 250605Z 14009G14KT 24/20 A2996 RMK A01 T02360198  RH  079%=      5-min Rain = 0
KMC1 250606Z 14007KT 24/20 A2996 RMK A01 T02360199  RH  080%=      5-min Rain = 0
KMC1 250607Z 15010KT 24/20 A2996 RMK A01 T02360199  RH  080%=      5-min Rain = 0
KMC1 250608Z 14011G16KT 24/20 A2996 RMK A01 T02360199  RH  080%=      5-min Rain = 0
KMC1 250609Z 14008KT 24/20 A2996 RMK A01 T02360199  RH  080%=      5-min Rain = 0
KMC1 250610Z 14009KT 24/20 A2996 RMK A01 T02350199  RH  080%=      5-min Rain = 0
KMC1 250611Z 14010KT 24/20 A2996 RMK A01 T02350199  RH  080%=      5-min Rain = 0
KMC1 250612Z 15008KT 24/20 A2996 RMK A01 T02350199  RH  080%=      5-min Rain = 0
KMC1 250613Z 14011G16KT 24/20 A2996 RMK A01 T02350199  RH  080%=      5-min Rain = 0
KMC1 250614Z 14013G20KT 24/20 A2996 RMK A01 T02350199  RH  080%=      5-min Rain = 0
KMC1 250615Z 14012G18KT 24/20 A2996 RMK A01 T02350199  RH  080%=      5-min Rain = 0
KMC1 250616Z 13010KT 24/20 A2996 RMK A01 T02350199  RH  080%=      5-min Rain = 0
KMC1 250617Z 15010KT 24/20 A2996 RMK A01 T02350199  RH  080%=      5-min Rain = 0
KMC1 250618Z 15011KT 24/20 A2996 RMK A01 T02350199  RH  080%=      5-min Rain = 0
KMC1 250619Z 15007KT 24/20 A2996 RMK A01 T02350199  RH  080%=      5-min Rain = 0
KMC1 250620Z 14009G14KT 24/20 A2996 RMK A01 T02350199  RH  080%=      5-min Rain = 0
KMC1 250621Z 15008KT 24/20 A2996 RMK A01 T02350199  RH  080%=      5-min Rain = 0
KMC1 250622Z 15011KT 24/20 A2996 RMK A01 T02350199  RH  081%=      5-min Rain = 0
KMC1 250623Z 15008KT 24/20 A2996 RMK A01 T02350199  RH  081%=      5-min Rain = 0
KMC1 250624Z 14008KT 24/20 A2996 RMK A01 T02350199  RH  081%=      5-min Rain = 0
KMC1 250625Z 14012KT 24/20 A2996 RMK A01 T02350200  RH  081%=      5-min Rain = 0
KMC1 250626Z 14010KT 24/20 A2996 RMK A01 T02350200  RH  081%=      5-min Rain = 0
KMC1 250627Z 14012G19KT 24/20 A2996 RMK A01 T02350199  RH  081%=      5-min Rain = 0
KMC1 250628Z 14011KT 24/20 A2996 RMK A01 T02350199  RH  081%=      5-min Rain = 0
KMC1 250629Z 14008KT 24/20 A2996 RMK A01 T02350199  RH  081%=      5-min Rain = 0
KMC1 250630Z 14009KT 24/20 A2996 RMK A01 T02350200  RH  081%=      5-min Rain = 0
KMC1 250631Z 15010KT 24/20 A2996 RMK A01 T02350200  RH  081%=      5-min Rain = 0
KMC1 250632Z 15009G14KT 24/20 A2996 RMK A01 T02350200  RH  081%=      5-min Rain = 0
KMC1 250633Z 15009KT 24/20 A2996 RMK A01 T02350200  RH  081%=      5-min Rain = 0
KMC1 250634Z 14007KT 24/20 A2996 RMK A01 T02350200  RH  081%=      5-min Rain = 0
KMC1 250635Z 14010KT 24/20 A2996 RMK A01 T02350200  RH  081%=      5-min Rain = 0
KMC1 250636Z 14008KT 23/20 A2996 RMK A01 T02340200  RH  081%=      5-min Rain = 0
KMC1 250637Z 14006KT 23/20 A2996 RMK A01 T02340200  RH  081%=      5-min Rain = 0
KMC1 250638Z 14010G16KT 23/20 A2996 RMK A01 T02340200  RH  081%=      5-min Rain = 0
KMC1 250639Z 15008G13KT 23/20 A2996 RMK A01 T02340200  RH  081%=      5-min Rain = 0
KMC1 250640Z 15010G16KT 23/20 A2996 RMK A01 T02340200  RH  081%=      5-min Rain = 0
KMC1 250641Z 15010KT 23/20 A2996 RMK A01 T02340200  RH  081%=      5-min Rain = 0
KMC1 250642Z 15007KT 23/20 A2996 RMK A01 T02340200  RH  081%=      5-min Rain = 0
KMC1 250643Z 14009G15KT 23/20 A2996 RMK A01 T02340200  RH  081%=      5-min Rain = 0
KMC1 250644Z 14008KT 23/20 A2996 RMK A01 T02340200  RH  081%=      5-min Rain = 0
KMC1 250645Z 15009KT 24/20 A2996 RMK A01 T02350201  RH  081%=      5-min Rain = 0
KMC1 250646Z 14008KT 23/20 A2996 RMK A01 T02340200  RH  081%=      5-min Rain = 0
KMC1 250647Z 15008G13KT 23/20 A2996 RMK A01 T02340200  RH  081%=      5-min Rain = 0
KMC1 250648Z 14008KT 23/20 A2996 RMK A01 T02340201  RH  081%=      5-min Rain = 0
KMC1 250649Z 15007G13KT 23/20 A2996 RMK A01 T02340201  RH  081%=      5-min Rain = 0
KMC1 250650Z 16008KT 23/20 A2996 RMK A01 T02340201  RH  081%=      5-min Rain = 0
KMC1 250651Z 14007KT 23/20 A2996 RMK A01 T02340201  RH  082%=      5-min Rain = 0
KMC1 250652Z 14006KT 24/20 A2996 RMK A01 T02350201  RH  081%=      5-min Rain = 0
KMC1 250653Z 14006KT 23/20 A2996 RMK A01 T02340201  RH  082%=      5-min Rain = 0
KMC1 250654Z 15007KT 23/20 A2996 RMK A01 T02340201  RH  081%=      5-min Rain = 0
KMC1 250655Z 14009G15KT 23/20 A2996 RMK A01 T02340201  RH  082%=      5-min Rain = 0
KMC1 250656Z 16013KT 23/20 A2996 RMK A01 T02340201  RH  081%=      5-min Rain = 0
KMC1 250657Z 15007G12KT 23/20 A2996 RMK A01 T02340200  RH  081%=      5-min Rain = 0
KMC1 250658Z 14009KT 24/20 A2997 RMK A01 T02350200  RH  081%=      5-min Rain = 0
KMC1 250659Z 14007KT 24/20 A2996 RMK A01 T02350200  RH  081%=      5-min Rain = 0
KMC1 250700Z 14006KT 24/20 A2997 RMK A01 T02350201  RH  081%=      5-min Rain = 0
KMC1 250701Z 14006KT 24/20 A2996 RMK A01 T02350201  RH  081%=      5-min Rain = 0
KMC1 250702Z 14005KT 24/20 A2997 RMK A01 T02350201  RH  081%=      5-min Rain = 0
KMC1 250703Z 14005KT 24/20 A2997 RMK A01 T02350201  RH  082%=      5-min Rain = 0
KMC1 250704Z 15008KT 23/20 A2997 RMK A01 T02340201  RH  082%=      5-min Rain = 0
KMC1 250705Z 15006KT 23/20 A2997 RMK A01 T02340201  RH  082%=      5-min Rain = 0
KMC1 250706Z 15008G13KT 23/20 A2997 RMK A01 T02340201  RH  082%=      5-min Rain = 0
KMC1 250707Z 15011KT 23/20 A2997 RMK A01 T02340201  RH  082%=      5-min Rain = 0
KMC1 250708Z 15008G13KT 23/20 A2997 RMK A01 T02340200  RH  081%=      5-min Rain = 0
KMC1 250709Z 15009KT 24/20 A2997 RMK A01 T02350201  RH  081%=      5-min Rain = 0
KMC1 250710Z 16008G13KT 24/20 A2997 RMK A01 T02350201  RH  081%=      5-min Rain = 0
KMC1 250711Z 14009KT 24/20 A2997 RMK A01 T02350201  RH  081%=      5-min Rain = 0
KMC1 250712Z 14009G16KT 24/20 A2997 RMK A01 T02350201  RH  081%=      5-min Rain = 0
KMC1 250713Z 15010G16KT 24/20 A2997 RMK A01 T02350201  RH  082%=      5-min Rain = 0
KMC1 250714Z 15009G14KT 24/20 A2997 RMK A01 T02350201  RH  082%=      5-min Rain = 0
KMC1 250715Z 14009KT 23/20 A2997 RMK A01 T02340201  RH  082%=      5-min Rain = 0
KMC1 250716Z 15012KT 23/20 A2997 RMK A01 T02340201  RH  082%=      5-min Rain = 0
KMC1 250717Z 16008KT 23/20 A2997 RMK A01 T02340202  RH  082%=      5-min Rain = 0
KMC1 250718Z 16008KT 23/20 A2997 RMK A01 T02340201  RH  082%=      5-min Rain = 0
KMC1 250719Z 15009KT 23/20 A2997 RMK A01 T02340202  RH  082%=      5-min Rain = 0
KMC1 250720Z 15009KT 24/20 A2997 RMK A01 T02350202  RH  082%=      5-min Rain = 0
KMC1 250721Z 15011KT 23/20 A2997 RMK A01 T02340201  RH  082%=      5-min Rain = 0
KMC1 250722Z 14009KT 23/20 A2997 RMK A01 T02340201  RH  082%=      5-min Rain = 0
KMC1 250723Z 14009KT 23/20 A2997 RMK A01 T02340202  RH  082%=      5-min Rain = 0
KMC1 250724Z 15009G15KT 23/20 A2996 RMK A01 T02340202  RH  082%=      5-min Rain = 0
KMC1 250725Z 13008G15KT 23/20 A2996 RMK A01 T02340201  RH  082%=      5-min Rain = 0
KMC1 250726Z 15010G16KT 23/20 A2996 RMK A01 T02330201  RH  082%=      5-min Rain = 0
KMC1 250727Z 14008KT 23/20 A2996 RMK A01 T02330201  RH  082%=      5-min Rain = 0
KMC1 250728Z 14006KT 23/20 A2996 RMK A01 T02330201  RH  082%=      5-min Rain = 0
KMC1 250729Z 13010KT 23/20 A2996 RMK A01 T02330202  RH  082%=      5-min Rain = 0
KMC1 250730Z 14008G14KT 23/20 A2996 RMK A01 T02330201  RH  082%=      5-min Rain = 0
KMC1 250731Z 14009KT 23/20 A2996 RMK A01 T02330201  RH  082%=      5-min Rain = 0
KMC1 250732Z 14010KT 23/20 A2996 RMK A01 T02330201  RH  082%=      5-min Rain = 0
KMC1 250733Z 16011KT 23/20 A2996 RMK A01 T02330201  RH  082%=      5-min Rain = 0
KMC1 250734Z 15010KT 23/20 A2996 RMK A01 T02330201  RH  082%=      5-min Rain = 0
KMC1 250735Z 14006KT 23/20 A2996 RMK A01 T02330201  RH  082%=      5-min Rain = 0
KMC1 250736Z 14007KT 23/20 A2996 RMK A01 T02330201  RH  082%=      5-min Rain = 0
KMC1 250737Z 14008KT 23/20 A2996 RMK A01 T02330201  RH  082%=      5-min Rain = 0
KMC1 250738Z 15009KT 23/20 A2996 RMK A01 T02330201  RH  082%=      5-min Rain = 0
KMC1 250739Z 14008KT 23/20 A2996 RMK A01 T02330201  RH  082%=      5-min Rain = 0
KMC1 250740Z 14008KT 23/20 A2996 RMK A01 T02330201  RH  082%=      5-min Rain = 0
KMC1 250741Z 15010KT 23/20 A2996 RMK A01 T02330201  RH  082%=      5-min Rain = 0
KMC1 250742Z 13007KT 23/20 A2996 RMK A01 T02330201  RH  082%=      5-min Rain = 0
KMC1 250743Z 14006KT 23/20 A2996 RMK A01 T02330201  RH  082%=      5-min Rain = 0
KMC1 250744Z 14008KT 23/20 A2996 RMK A01 T02330201  RH  082%=      5-min Rain = 0
KMC1 250745Z 15007KT 23/20 A2996 RMK A01 T02330201  RH  082%=      5-min Rain = 0
KMC1 250746Z 14004KT 23/20 A2996 RMK A01 T02320201  RH  083%=      5-min Rain = 0
KMC1 250747Z 15005KT 23/20 A2996 RMK A01 T02320201  RH  083%=      5-min Rain = 0
KMC1 250748Z 14007KT 23/20 A2996 RMK A01 T02320201  RH  083%=      5-min Rain = 0
KMC1 250749Z 15006KT 23/20 A2996 RMK A01 T02310201  RH  083%=      5-min Rain = 0
KMC1 250750Z 14005KT 23/20 A2996 RMK A01 T02320201  RH  083%=      5-min Rain = 0
KMC1 250751Z 14008KT 23/20 A2996 RMK A01 T02320201  RH  083%=      5-min Rain = 0
KMC1 250752Z 14007KT 23/20 A2996 RMK A01 T02310201  RH  083%=      5-min Rain = 0
KMC1 250753Z 14007KT 23/20 A2996 RMK A01 T02310200  RH  083%=      5-min Rain = 0
KMC1 250754Z 14006KT 23/20 A2996 RMK A01 T02320201  RH  083%=      5-min Rain = 0
KMC1 250755Z 14008G14KT 23/20 A2996 RMK A01 T02310200  RH  083%=      5-min Rain = 0
KMC1 250756Z 14009KT 23/20 A2996 RMK A01 T02320200  RH  083%=      5-min Rain = 0
KMC1 250757Z 14009G14KT 23/20 A2996 RMK A01 T02310199  RH  082%=      5-min Rain = 0
KMC1 250758Z 14009KT 23/20 A2996 RMK A01 T02320200  RH  082%=      5-min Rain = 0
KMC1 250759Z 14008KT 23/20 A2995 RMK A01 T02320200  RH  082%=      5-min Rain = 0
KMC1 250800Z 13008KT 23/20 A2995 RMK A01 T02320200  RH  082%=      5-min Rain = 0
KMC1 250801Z 13010KT 23/20 A2995 RMK A01 T02320200  RH  082%=      5-min Rain = 0
KMC1 250802Z 14008G15KT 23/20 A2995 RMK A01 T02320199  RH  082%=      5-min Rain = 0
KMC1 250803Z 14013G19KT 23/20 A2995 RMK A01 T02320199  RH  082%=      5-min Rain = 0
KMC1 250804Z 14010KT 23/20 A2995 RMK A01 T02320199  RH  081%=      5-min Rain = 0
KMC1 250805Z 15009G14KT 23/20 A2995 RMK A01 T02320198  RH  081%=      5-min Rain = 0
KMC1 250806Z 15007KT 23/20 A2995 RMK A01 T02320198  RH  081%=      5-min Rain = 0
KMC1 250807Z 14010KT 23/20 A2995 RMK A01 T02320198  RH  082%=      5-min Rain = 0
KMC1 250808Z 14009G15KT 23/20 A2995 RMK A01 T02310198  RH  082%=      5-min Rain = 0
KMC1 250809Z 14012KT 23/20 A2995 RMK A01 T02300198  RH  082%=      5-min Rain = 0
KMC1 250810Z 14011KT 23/20 A2995 RMK A01 T02310199  RH  082%=      5-min Rain = 0
KMC1 250811Z 13007KT 23/20 A2995 RMK A01 T02300198  RH  082%=      5-min Rain = 0
KMC1 250812Z 13009G15KT 23/20 A2995 RMK A01 T02300199  RH  083%=      5-min Rain = 0
KMC1 250813Z 13014KT 23/20 A2995 RMK A01 T02290198  RH  083%=      5-min Rain = 0
KMC1 250814Z 14010KT 23/20 A2995 RMK A01 T02290198  RH  083%=      5-min Rain = 0
KMC1 250815Z 13008KT 23/20 A2995 RMK A01 T02290198  RH  083%=      5-min Rain = 0
KMC1 250816Z 13010KT 23/20 A2995 RMK A01 T02290198  RH  083%=      5-min Rain = 0
KMC1 250817Z 13008KT 23/20 A2995 RMK A01 T02290198  RH  083%=      5-min Rain = 0
KMC1 250818Z 14009G15KT 23/20 A2995 RMK A01 T02280198  RH  083%=      5-min Rain = 0
KMC1 250819Z 14010KT 23/20 A2995 RMK A01 T02280199  RH  083%=      5-min Rain = 0
KMC1 250820Z 12010KT 23/20 A2995 RMK A01 T02280198  RH  083%=      5-min Rain = 0
KMC1 250821Z 13011KT 23/20 A2995 RMK A01 T02280198  RH  083%=      5-min Rain = 0
KMC1 250822Z 13010KT 23/20 A2995 RMK A01 T02280198  RH  084%=      5-min Rain = 0
KMC1 250823Z 13008KT 23/20 A2995 RMK A01 T02270198  RH  084%=      5-min Rain = 0
KMC1 250824Z 13008KT 23/20 A2995 RMK A01 T02270198  RH  084%=      5-min Rain = 0
KMC1 250825Z 13009KT 23/20 A2995 RMK A01 T02270198  RH  084%=      5-min Rain = 0
KMC1 250826Z 11010KT 23/20 A2995 RMK A01 T02270199  RH  084%=      5-min Rain = 0
KMC1 250827Z 12008KT 23/20 A2995 RMK A01 T02270199  RH  084%=      5-min Rain = 0
KMC1 250828Z 13010KT 23/20 A2995 RMK A01 T02270199  RH  084%=      5-min Rain = 0
KMC1 250829Z 13009KT 23/20 A2995 RMK A01 T02270199  RH  084%=      5-min Rain = 0
KMC1 250830Z 12009KT 23/20 A2995 RMK A01 T02270199  RH  084%=      5-min Rain = 0
KMC1 250831Z 12011KT 23/20 A2995 RMK A01 T02270199  RH  084%=      5-min Rain = 0
KMC1 250832Z 14007G12KT 23/20 A2995 RMK A01 T02270199  RH  084%=      5-min Rain = 0
KMC1 250833Z 13011KT 23/20 A2995 RMK A01 T02270198  RH  084%=      5-min Rain = 0
KMC1 250834Z 13008G13KT 23/20 A2995 RMK A01 T02260198  RH  084%=      5-min Rain = 0
KMC1 250835Z 13009KT 23/20 A2995 RMK A01 T02270198  RH  084%=      5-min Rain = 0
KMC1 250836Z 13012KT 23/20 A2995 RMK A01 T02260198  RH  084%=      5-min Rain = 0
KMC1 250837Z 12009KT 23/20 A2995 RMK A01 T02260197  RH  084%=      5-min Rain = 0
KMC1 250838Z 12012G18KT 23/20 A2994 RMK A01 T02270198  RH  084%=      5-min Rain = 0
KMC1 250839Z 13009G14KT 23/20 A2994 RMK A01 T02270197  RH  083%=      5-min Rain = 0
KMC1 250840Z 13007G12KT 23/20 A2994 RMK A01 T02260197  RH  083%=      5-min Rain = 0
KMC1 250841Z 12009KT 23/20 A2994 RMK A01 T02260197  RH  084%=      5-min Rain = 0
KMC1 250842Z 13012KT 23/20 A2994 RMK A01 T02260197  RH  084%=      5-min Rain = 0
KMC1 250843Z 12012G17KT 23/20 A2994 RMK A01 T02260197  RH  084%=      5-min Rain = 0
KMC1 250844Z 13010KT 23/20 A2994 RMK A01 T02260197  RH  083%=      5-min Rain = 0
KMC1 250845Z 13011KT 23/20 A2994 RMK A01 T02260197  RH  084%=      5-min Rain = 0
KMC1 250846Z 12012KT 23/20 A2994 RMK A01 T02250196  RH  084%=      5-min Rain = 0
KMC1 250847Z 13010KT 23/20 A2994 RMK A01 T02250196  RH  084%=      5-min Rain = 0
KMC1 250848Z 13011G16KT 23/20 A2994 RMK A01 T02260197  RH  084%=      5-min Rain = 0
KMC1 250849Z 13009KT 23/20 A2994 RMK A01 T02260197  RH  084%=      5-min Rain = 0
KMC1 250850Z 13007KT 23/20 A2994 RMK A01 T02250197  RH  084%=      5-min Rain = 0
KMC1 250851Z 13007KT 23/20 A2994 RMK A01 T02250197  RH  084%=      5-min Rain = 0
KMC1 250852Z 13010KT 23/20 A2994 RMK A01 T02250197  RH  084%=      5-min Rain = 0
KMC1 250853Z 13009KT 23/20 A2994 RMK A01 T02250197  RH  084%=      5-min Rain = 0
KMC1 250854Z 13009KT 23/20 A2994 RMK A01 T02250197  RH  084%=      5-min Rain = 0
KMC1 250855Z 13008KT 23/20 A2994 RMK A01 T02250196  RH  084%=      5-min Rain = 0
KMC1 250856Z 13010KT 23/20 A2994 RMK A01 T02250197  RH  084%=      5-min Rain = 0
KMC1 250857Z 14007KT 23/20 A2994 RMK A01 T02250196  RH  084%=      5-min Rain = 0
KMC1 250858Z 13010G15KT 23/20 A2994 RMK A01 T02250197  RH  084%=      5-min Rain = 0
KMC1 250859Z 13011KT 23/20 A2994 RMK A01 T02250197  RH  084%=      5-min Rain = 0
KMC1 250900Z 14009KT 23/20 A2994 RMK A01 T02260197  RH  084%=      5-min Rain = 0
KMC1 250901Z 12008KT 23/20 A2994 RMK A01 T02260197  RH  084%=      5-min Rain = 0
KMC1 250902Z 13008KT 23/20 A2994 RMK A01 T02260197  RH  083%=      5-min Rain = 0
KMC1 250903Z 13008KT 23/20 A2994 RMK A01 T02260197  RH  083%=      5-min Rain = 0
KMC1 250904Z 13012KT 23/20 A2994 RMK A01 T02260197  RH  083%=      5-min Rain = 0
KMC1 250905Z 13011KT 23/20 A2994 RMK A01 T02260196  RH  083%=      5-min Rain = 0
KMC1 250906Z 13009KT 23/20 A2994 RMK A01 T02270197  RH  083%=      5-min Rain = 0
KMC1 250907Z 14007KT 23/20 A2994 RMK A01 T02270197  RH  083%=      5-min Rain = 0
KMC1 250908Z 14009KT 23/20 A2994 RMK A01 T02270197  RH  083%=      5-min Rain = 0
KMC1 250909Z 14009G14KT 23/20 A2994 RMK A01 T02270197  RH  083%=      5-min Rain = 0
KMC1 250910Z 14010G15KT 23/20 A2994 RMK A01 T02270196  RH  083%=      5-min Rain = 0
KMC1 250911Z 14009KT 23/20 A2994 RMK A01 T02270197  RH  083%=      5-min Rain = 0
KMC1 250912Z 13011G18KT 23/20 A2994 RMK A01 T02270196  RH  083%=      5-min Rain = 0
KMC1 250913Z 14010G15KT 23/20 A2994 RMK A01 T02270196  RH  083%=      5-min Rain = 0
KMC1 250914Z 14008G14KT 23/20 A2994 RMK A01 T02270196  RH  083%=      5-min Rain = 0
KMC1 250915Z 14010KT 23/20 A2994 RMK A01 T02270197  RH  083%=      5-min Rain = 0
KMC1 250916Z 13011KT 23/20 A2994 RMK A01 T02270196  RH  083%=      5-min Rain = 0
KMC1 250917Z 14015KT 23/20 A2994 RMK A01 T02260196  RH  083%=      5-min Rain = 0
KMC1 250918Z 14009KT 23/20 A2994 RMK A01 T02270196  RH  083%=      5-min Rain = 0
KMC1 250919Z 13009G14KT 23/20 A2994 RMK A01 T02270196  RH  083%=      5-min Rain = 0
KMC1 250920Z 13010G16KT 23/20 A2994 RMK A01 T02270196  RH  083%=      5-min Rain = 0
KMC1 250921Z 14011KT 23/20 A2994 RMK A01 T02260196  RH  083%=      5-min Rain = 0
KMC1 250922Z 13014KT 23/20 A2994 RMK A01 T02260196  RH  083%=      5-min Rain = 0
KMC1 250923Z 13010G17KT 23/20 A2994 RMK A01 T02260196  RH  083%=      5-min Rain = 0
KMC1 250924Z 12012KT 23/20 A2994 RMK A01 T02260196  RH  083%=      5-min Rain = 0
KMC1 250925Z 14012G18KT 23/20 A2994 RMK A01 T02260196  RH  083%=      5-min Rain = 0
KMC1 250926Z 13010KT 23/20 A2994 RMK A01 T02260196  RH  083%=      5-min Rain = 0
KMC1 250927Z 13010KT 23/20 A2994 RMK A01 T02260196  RH  083%=      5-min Rain = 0
KMC1 250928Z 13008KT 23/20 A2994 RMK A01 T02260196  RH  083%=      5-min Rain = 0
KMC1 250929Z 13010G16KT 23/20 A2994 RMK A01 T02260196  RH  083%=      5-min Rain = 0
KMC1 250930Z 13011KT 23/20 A2994 RMK A01 T02260196  RH  083%=      5-min Rain = 0
KMC1 250931Z 13009G14KT 23/20 A2994 RMK A01 T02260196  RH  083%=      5-min Rain = 0
KMC1 250932Z 13008G13KT 23/20 A2994 RMK A01 T02260196  RH  083%=      5-min Rain = 0
KMC1 250933Z 14012KT 23/20 A2994 RMK A01 T02260196  RH  083%=      5-min Rain = 0
KMC1 250934Z 13011KT 23/20 A2994 RMK A01 T02260195  RH  083%=      5-min Rain = 0
KMC1 250935Z 13010KT 23/20 A2994 RMK A01 T02260195  RH  083%=      5-min Rain = 0
KMC1 250936Z 13010KT 23/20 A2994 RMK A01 T02260195  RH  083%=      5-min Rain = 0
KMC1 250937Z 13007KT 23/20 A2994 RMK A01 T02260196  RH  083%=      5-min Rain = 0
KMC1 250938Z 14007KT 23/20 A2994 RMK A01 T02260196  RH  083%=      5-min Rain = 0
KMC1 250939Z 14008G13KT 23/20 A2994 RMK A01 T02250196  RH  084%=      5-min Rain = 0
KMC1 250940Z 14007KT 23/20 A2994 RMK A01 T02250196  RH  084%=      5-min Rain = 0
KMC1 250941Z 14009G14KT 23/20 A2994 RMK A01 T02250196  RH  084%=      5-min Rain = 0
KMC1 250942Z 15008KT 23/20 A2994 RMK A01 T02250196  RH  084%=      5-min Rain = 0
KMC1 250943Z 13008KT 22/20 A2994 RMK A01 T02240196  RH  084%=      5-min Rain = 0
KMC1 250944Z 13009KT 23/20 A2994 RMK A01 T02250197  RH  084%=      5-min Rain = 0
KMC1 250945Z 14012KT 23/20 A2994 RMK A01 T02250196  RH  084%=      5-min Rain = 0
KMC1 250946Z 15009KT 23/20 A2994 RMK A01 T02250196  RH  084%=      5-min Rain = 0
KMC1 250947Z 14010G15KT 23/20 A2994 RMK A01 T02250196  RH  084%=      5-min Rain = 0
KMC1 250948Z 15010KT 23/20 A2995 RMK A01 T02250196  RH  084%=      5-min Rain = 0
KMC1 250949Z 15006G12KT 23/20 A2995 RMK A01 T02250196  RH  084%=      5-min Rain = 0
KMC1 250950Z 15010G15KT 23/20 A2995 RMK A01 T02250197  RH  084%=      5-min Rain = 0
KMC1 250951Z 16010KT 23/20 A2995 RMK A01 T02250196  RH  084%=      5-min Rain = 0
KMC1 250952Z 15008G13KT 23/20 A2995 RMK A01 T02250196  RH  084%=      5-min Rain = 0
KMC1 250953Z 14008G13KT 23/20 A2995 RMK A01 T02250196  RH  084%=      5-min Rain = 0
KMC1 250954Z 15009G14KT 23/20 A2995 RMK A01 T02250196  RH  084%=      5-min Rain = 0
KMC1 250955Z 14009G16KT 23/20 A2995 RMK A01 T02250196  RH  084%=      5-min Rain = 0
KMC1 250956Z 14012KT 23/20 A2995 RMK A01 T02250196  RH  084%=      5-min Rain = 0
KMC1 250957Z 15011G16KT 23/20 A2995 RMK A01 T02250196  RH  084%=      5-min Rain = 0
KMC1 250958Z 15009KT 23/20 A2995 RMK A01 T02250196  RH  084%=      5-min Rain = 0
KMC1 250959Z 14008KT 23/20 A2995 RMK A01 T02260196  RH  084%=      5-min Rain = 0
KMC1 251000Z 15008KT 23/20 A2995 RMK A01 T02250196  RH  084%=      5-min Rain = 0
KMC1 251001Z 14007KT 23/20 A2995 RMK A01 T02260196  RH  084%=      5-min Rain = 0
KMC1 251002Z 14006KT 23/20 A2995 RMK A01 T02250196  RH  084%=      5-min Rain = 0
KMC1 251003Z 14007KT 23/20 A2995 RMK A01 T02260197  RH  084%=      5-min Rain = 0
KMC1 251004Z 14007KT 23/20 A2995 RMK A01 T02260197  RH  084%=      5-min Rain = 0
KMC1 251005Z 13008KT 23/20 A2995 RMK A01 T02250197  RH  084%=      5-min Rain = 0
KMC1 251006Z 14004KT 23/20 A2995 RMK A01 T02260196  RH  084%=      5-min Rain = 0
KMC1 251007Z 15008KT 23/20 A2995 RMK A01 T02260197  RH  084%=      5-min Rain = 0
KMC1 251008Z 14008KT 23/20 A2995 RMK A01 T02260196  RH  084%=      5-min Rain = 0
KMC1 251009Z 14009KT 23/20 A2995 RMK A01 T02260196  RH  083%=      5-min Rain = 0
KMC1 251010Z 14009G14KT 23/20 A2995 RMK A01 T02260196  RH  083%=      5-min Rain = 0
KMC1 251011Z 14010KT 23/20 A2995 RMK A01 T02260196  RH  083%=      5-min Rain = 0
KMC1 251012Z 15006G11KT 23/20 A2995 RMK A01 T02270196  RH  083%=      5-min Rain = 0
KMC1 251013Z 14006KT 23/20 A2996 RMK A01 T02270196  RH  083%=      5-min Rain = 0
KMC1 251014Z 15007KT 23/20 A2995 RMK A01 T02260196  RH  083%=      5-min Rain = 0
KMC1 251015Z 15007KT 23/20 A2996 RMK A01 T02260196  RH  083%=      5-min Rain = 0
KMC1 251016Z 16011KT 23/20 A2996 RMK A01 T02270196  RH  083%=      5-min Rain = 0
KMC1 251017Z 16011KT 23/20 A2996 RMK A01 T02270196  RH  083%=      5-min Rain = 0
KMC1 251018Z 15010G15KT 23/20 A2996 RMK A01 T02270196  RH  083%=      5-min Rain = 0
KMC1 251019Z 15009KT 23/20 A2996 RMK A01 T02270196  RH  083%=      5-min Rain = 0
KMC1 251020Z 15006G11KT 23/20 A2996 RMK A01 T02270196  RH  083%=      5-min Rain = 0
KMC1 251021Z 15007KT 23/20 A2996 RMK A01 T02270196  RH  083%=      5-min Rain = 0
KMC1 251022Z 16007KT 23/20 A2996 RMK A01 T02270197  RH  083%=      5-min Rain = 0
KMC1 251023Z 15007KT 23/20 A2996 RMK A01 T02270197  RH  083%=      5-min Rain = 0
KMC1 251024Z 15008KT 23/20 A2996 RMK A01 T02270197  RH  083%=      5-min Rain = 0
KMC1 251025Z 16011KT 23/20 A2996 RMK A01 T02270197  RH  083%=      5-min Rain = 0
KMC1 251026Z 16008KT 23/20 A2996 RMK A01 T02270196  RH  083%=      5-min Rain = 0
KMC1 251027Z 15012KT 23/20 A2996 RMK A01 T02280197  RH  083%=      5-min Rain = 0
KMC1 251028Z 14011KT 23/20 A2996 RMK A01 T02280197  RH  083%=      5-min Rain = 0
KMC1 251029Z 14010KT 23/20 A2996 RMK A01 T02280197  RH  083%=      5-min Rain = 0
KMC1 251030Z 15009KT 23/20 A2996 RMK A01 T02280197  RH  083%=      5-min Rain = 0
KMC1 251031Z 14008KT 23/20 A2996 RMK A01 T02280197  RH  083%=      5-min Rain = 0
KMC1 251032Z 15008KT 23/20 A2996 RMK A01 T02280197  RH  083%=      5-min Rain = 0
KMC1 251033Z 15005KT 23/20 A2996 RMK A01 T02280197  RH  083%=      5-min Rain = 0
KMC1 251034Z 15006KT 23/20 A2996 RMK A01 T02280198  RH  083%=      5-min Rain = 0
KMC1 251035Z 15006KT 23/20 A2996 RMK A01 T02280198  RH  083%=      5-min Rain = 0
KMC1 251036Z 14006KT 23/20 A2996 RMK A01 T02270198  RH  083%=      5-min Rain = 0
KMC1 251037Z 15006KT 23/20 A2996 RMK A01 T02280198  RH  084%=      5-min Rain = 0
KMC1 251038Z 14008KT 23/20 A2996 RMK A01 T02270198  RH  084%=      5-min Rain = 0
KMC1 251039Z 15007KT 23/20 A2996 RMK A01 T02270197  RH  083%=      5-min Rain = 0
KMC1 251040Z 13008KT 23/20 A2996 RMK A01 T02270197  RH  083%=      5-min Rain = 0
KMC1 251041Z 15008KT 23/20 A2996 RMK A01 T02270198  RH  083%=      5-min Rain = 0
KMC1 251042Z 14008KT 23/20 A2997 RMK A01 T02280198  RH  083%=      5-min Rain = 0
KMC1 251043Z 15013KT 23/20 A2996 RMK A01 T02270198  RH  083%=      5-min Rain = 0
KMC1 251044Z 15008KT 23/20 A2996 RMK A01 T02270197  RH  083%=      5-min Rain = 0
KMC1 251045Z 14012G17KT 23/20 A2996 RMK A01 T02270197  RH  083%=      5-min Rain = 0
KMC1 251046Z 14009KT 23/20 A2996 RMK A01 T02280198  RH  083%=      5-min Rain = 0
KMC1 251047Z 14011G16KT 23/20 A2996 RMK A01 T02280198  RH  083%=      5-min Rain = 0
KMC1 251048Z 14012KT 23/20 A2996 RMK A01 T02280198  RH  083%=      5-min Rain = 0
KMC1 251049Z 14010KT 23/20 A2996 RMK A01 T02280198  RH  083%=      5-min Rain = 0
KMC1 251050Z 14008G14KT 23/20 A2996 RMK A01 T02280198  RH  083%=      5-min Rain = 0
KMC1 251051Z 14008KT 23/20 A2996 RMK A01 T02280198  RH  083%=      5-min Rain = 0
KMC1 251052Z 14005KT 23/20 A2996 RMK A01 T02280198  RH  083%=      5-min Rain = 0
KMC1 251053Z 14009KT 23/20 A2996 RMK A01 T02280198  RH  083%=      5-min Rain = 0
KMC1 251054Z 14007KT 23/20 A2996 RMK A01 T02280199  RH  084%=      5-min Rain = 0
KMC1 251055Z 14008KT 23/20 A2996 RMK A01 T02280199  RH  084%=      5-min Rain = 0
KMC1 251056Z 15007KT 23/20 A2997 RMK A01 T02270198  RH  084%=      5-min Rain = 0
KMC1 251057Z 14011KT 23/20 A2997 RMK A01 T02270198  RH  084%=      5-min Rain = 0
KMC1 251058Z 14008KT 23/20 A2997 RMK A01 T02270199  RH  084%=      5-min Rain = 0
KMC1 251059Z 14006KT 23/20 A2997 RMK A01 T02270198  RH  084%=      5-min Rain = 0
KMC1 251100Z 15008G13KT 23/20 A2997 RMK A01 T02270198  RH  084%=      5-min Rain = 0
KMC1 251101Z 14011KT 23/20 A2997 RMK A01 T02270199  RH  084%=      5-min Rain = 0
KMC1 251102Z 14009G14KT 23/20 A2997 RMK A01 T02280199  RH  084%=      5-min Rain = 0
KMC1 251103Z 15008KT 23/20 A2997 RMK A01 T02280198  RH  084%=      5-min Rain = 0
KMC1 251104Z 15009KT 23/20 A2997 RMK A01 T02280199  RH  084%=      5-min Rain = 0
KMC1 251105Z 15008KT 23/20 A2997 RMK A01 T02280199  RH  084%=      5-min Rain = 0
KMC1 251106Z 15008KT 23/20 A2997 RMK A01 T02280199  RH  084%=      5-min Rain = 0
KMC1 251107Z 14008KT 23/20 A2997 RMK A01 T02280199  RH  084%=      5-min Rain = 0
KMC1 251108Z 15006KT 23/20 A2997 RMK A01 T02280199  RH  084%=      5-min Rain = 0
KMC1 251109Z 15005KT 23/20 A2997 RMK A01 T02280199  RH  084%=      5-min Rain = 0
KMC1 251110Z 16006KT 23/20 A2997 RMK A01 T02280199  RH  084%=      5-min Rain = 0
KMC1 251111Z 14009KT 23/20 A2997 RMK A01 T02280199  RH  084%=      5-min Rain = 0
KMC1 251112Z 14006KT 23/20 A2997 RMK A01 T02280199  RH  084%=      5-min Rain = 0
KMC1 251113Z 15007KT 23/20 A2997 RMK A01 T02280199  RH  084%=      5-min Rain = 0
KMC1 251114Z 15007KT 23/20 A2997 RMK A01 T02280199  RH  084%=      5-min Rain = 0
KMC1 251115Z 14008KT 23/20 A2997 RMK A01 T02280199  RH  084%=      5-min Rain = 0
KMC1 251116Z 15008KT 23/20 A2997 RMK A01 T02280199  RH  084%=      5-min Rain = 0
KMC1 251117Z 14008KT 23/20 A2997 RMK A01 T02280199  RH  084%=      5-min Rain = 0
KMC1 251118Z 15008KT 23/20 A2997 RMK A01 T02280199  RH  084%=      5-min Rain = 0
KMC1 251119Z 14007G12KT 23/20 A2997 RMK A01 T02280199  RH  084%=      5-min Rain = 0
KMC1 251120Z 13007G12KT 23/20 A2997 RMK A01 T02280199  RH  084%=      5-min Rain = 0
KMC1 251121Z 14006KT 23/20 A2997 RMK A01 T02280200  RH  084%=      5-min Rain = 0
KMC1 251122Z 14010KT 23/20 A2997 RMK A01 T02280199  RH  084%=      5-min Rain = 0
KMC1 251123Z 14006KT 23/20 A2997 RMK A01 T02280199  RH  084%=      5-min Rain = 0
KMC1 251124Z 14008KT 23/20 A2997 RMK A01 T02280199  RH  084%=      5-min Rain = 0
KMC1 251125Z 14008KT 23/20 A2997 RMK A01 T02280200  RH  084%=      5-min Rain = 0
KMC1 251126Z 14007KT 23/20 A2997 RMK A01 T02280199  RH  084%=      5-min Rain = 0
KMC1 251127Z 14008G13KT 23/20 A2997 RMK A01 T02280199  RH  084%=      5-min Rain = 0
KMC1 251128Z 15010KT 23/20 A2997 RMK A01 T02280199  RH  084%=      5-min Rain = 0
KMC1 251129Z 14008KT 23/20 A2997 RMK A01 T02280200  RH  084%=      5-min Rain = 0
KMC1 251130Z 15007KT 23/20 A2997 RMK A01 T02280200  RH  084%=      5-min Rain = 0
KMC1 251131Z 15007KT 23/20 A2997 RMK A01 T02280200  RH  084%=      5-min Rain = 0
KMC1 251132Z 15006KT 23/20 A2998 RMK A01 T02280201  RH  085%=      5-min Rain = 0
KMC1 251133Z 14006G11KT 23/20 A2998 RMK A01 T02270201  RH  085%=      5-min Rain = 0
KMC1 251134Z 14007KT 23/20 A2998 RMK A01 T02270201  RH  085%=      5-min Rain = 0
KMC1 251135Z 14010KT 23/20 A2998 RMK A01 T02270201  RH  085%=      5-min Rain = 0
KMC1 251136Z 13010G15KT 23/20 A2998 RMK A01 T02260201  RH  085%=      5-min Rain = 0
KMC1 251137Z 13009KT 23/20 A2998 RMK A01 T02260201  RH  085%=      5-min Rain = 0
KMC1 251138Z 13009KT 23/20 A2998 RMK A01 T02260200  RH  085%=      5-min Rain = 0
KMC1 251139Z 13007KT 23/20 A2998 RMK A01 T02260200  RH  085%=      5-min Rain = 0
KMC1 251140Z 13009KT 23/20 A2998 RMK A01 T02270200  RH  085%=      5-min Rain = 0
KMC1 251141Z 14009KT 23/20 A2998 RMK A01 T02260200  RH  085%=      5-min Rain = 0
KMC1 251142Z 15007KT 23/20 A2998 RMK A01 T02270200  RH  085%=      5-min Rain = 0
KMC1 251143Z 14009KT 23/20 A2998 RMK A01 T02270200  RH  085%=      5-min Rain = 0
KMC1 251144Z 14009KT 23/20 A2998 RMK A01 T02270200  RH  085%=      5-min Rain = 0
KMC1 251145Z 14008KT 23/20 A2998 RMK A01 T02270200  RH  085%=      5-min Rain = 0
KMC1 251146Z 13008KT 23/20 A2998 RMK A01 T02270200  RH  084%=      5-min Rain = 0
KMC1 251147Z 13008KT 23/20 A2998 RMK A01 T02270200  RH  084%=      5-min Rain = 0
KMC1 251148Z 13007KT 23/20 A2998 RMK A01 T02280200  RH  084%=      5-min Rain = 0
KMC1 251149Z 14008G15KT 23/20 A2998 RMK A01 T02280200  RH  085%=      5-min Rain = 0
KMC1 251150Z 14008KT 23/20 A2998 RMK A01 T02280200  RH  084%=      5-min Rain = 0
KMC1 251151Z 14006KT 23/20 A2998 RMK A01 T02280200  RH  084%=      5-min Rain = 0
KMC1 251152Z 14006KT 23/20 A2998 RMK A01 T02280201  RH  085%=      5-min Rain = 0
KMC1 251153Z 13010KT 23/20 A2998 RMK A01 T02280201  RH  085%=      5-min Rain = 0
KMC1 251154Z 13008KT 23/20 A2998 RMK A01 T02280200  RH  084%=      5-min Rain = 0
KMC1 251155Z 14006KT 23/20 A2998 RMK A01 T02280200  RH  084%=      5-min Rain = 0
KMC1 251156Z 13005KT 23/20 A2998 RMK A01 T02280200  RH  084%=      5-min Rain = 0
KMC1 251157Z 13006KT 23/20 A2998 RMK A01 T02280201  RH  085%=      5-min Rain = 0
KMC1 251158Z 14007KT 23/20 A2998 RMK A01 T02280200  RH  085%=      5-min Rain = 0
KMC1 251159Z 14007KT 23/20 A2998 RMK A01 T02280201  RH  085%=      5-min Rain = 0
KMC1 251200Z 13006KT 23/20 A2998 RMK A01 T02280201  RH  085%=      5-min Rain = 0
KMC1 251201Z 14008KT 23/20 A2998 RMK A01 T02280201  RH  085%=      5-min Rain = 0
KMC1 251202Z 13008KT 23/20 A2998 RMK A01 T02280200  RH  084%=      5-min Rain = 0
KMC1 251203Z 13007KT 23/20 A2998 RMK A01 T02280200  RH  084%=      5-min Rain = 0
KMC1 251204Z 13007KT 23/20 A2998 RMK A01 T02280200  RH  084%=      5-min Rain = 0
KMC1 251205Z 13007KT 23/20 A2998 RMK A01 T02280200  RH  084%=      5-min Rain = 0
KMC1 251206Z 13007KT 23/20 A2998 RMK A01 T02280200  RH  084%=      5-min Rain = 0
KMC1 251207Z 12008KT 23/20 A2998 RMK A01 T02280200  RH  084%=      5-min Rain = 0
KMC1 251208Z 14006KT 23/20 A2998 RMK A01 T02280200  RH  084%=      5-min Rain = 0
KMC1 251209Z 13009KT 23/20 A2998 RMK A01 T02280200  RH  084%=      5-min Rain = 0
KMC1 251210Z 13007KT 23/20 A2999 RMK A01 T02280201  RH  084%=      5-min Rain = 0
KMC1 251211Z 13007KT 23/20 A2999 RMK A01 T02280200  RH  084%=      5-min Rain = 0
KMC1 251212Z 13007KT 23/20 A2999 RMK A01 T02280201  RH  084%=      5-min Rain = 0
KMC1 251213Z 13006KT 23/20 A2999 RMK A01 T02290201  RH  084%=      5-min Rain = 0
KMC1 251214Z 13008G13KT 23/20 A2999 RMK A01 T02280201  RH  084%=      5-min Rain = 0
KMC1 251215Z 12007KT 23/20 A2999 RMK A01 T02280200  RH  084%=      5-min Rain = 0
KMC1 251216Z 12007KT 23/20 A2999 RMK A01 T02280201  RH  084%=      5-min Rain = 0
KMC1 251217Z 12009KT 23/20 A2999 RMK A01 T02280200  RH  084%=      5-min Rain = 0
KMC1 251218Z 12007KT 23/20 A2999 RMK A01 T02280201  RH  084%=      5-min Rain = 0
KMC1 251219Z 13006KT 23/20 A2999 RMK A01 T02290201  RH  084%=      5-min Rain = 0
KMC1 251220Z 12008KT 23/20 A2999 RMK A01 T02290201  RH  084%=      5-min Rain = 0
KMC1 251221Z 12007KT 23/20 A2999 RMK A01 T02290201  RH  084%=      5-min Rain = 0
KMC1 251222Z 12005KT 23/20 A2999 RMK A01 T02290201  RH  084%=      5-min Rain = 0
KMC1 251223Z 12008KT 23/20 A2999 RMK A01 T02290201  RH  085%=      5-min Rain = 0
KMC1 251224Z 11007KT 23/20 A2999 RMK A01 T02290201  RH  084%=      5-min Rain = 0
KMC1 251225Z 12007KT 23/20 A2999 RMK A01 T02290201  RH  084%=      5-min Rain = 0
KMC1 251226Z 12007KT 23/20 A2999 RMK A01 T02290201  RH  084%=      5-min Rain = 0
KMC1 251227Z 12007KT 23/20 A2999 RMK A01 T02290201  RH  084%=      5-min Rain = 0
KMC1 251228Z 13008KT 23/20 A2999 RMK A01 T02290201  RH  084%=      5-min Rain = 0
KMC1 251229Z 13008KT 23/20 A2999 RMK A01 T02290201  RH  084%=      5-min Rain = 0
KMC1 251230Z 13007KT 23/20 A2999 RMK A01 T02290201  RH  084%=      5-min Rain = 0
KMC1 251231Z 12008KT 23/20 A2999 RMK A01 T02290201  RH  084%=      5-min Rain = 0
KMC1 251232Z 12008KT 23/20 A2999 RMK A01 T02290201  RH  084%=      5-min Rain = 0
KMC1 251233Z 12008KT 23/20 A30 RMK A01 T02290201  RH  084%=      5-min Rain = 0
KMC1 251234Z 12008KT 23/20 A30 RMK A01 T02290201  RH  084%=      5-min Rain = 0
KMC1 251235Z 12007KT 23/20 A30 RMK A01 T02290201  RH  084%=      5-min Rain = 0
KMC1 251236Z 12007KT 23/20 A30 RMK A01 T02290202  RH  084%=      5-min Rain = 0
KMC1 251237Z 12009KT 23/20 A30 RMK A01 T02290202  RH  084%=      5-min Rain = 0
KMC1 251238Z 12007KT 23/20 A30 RMK A01 T02290201  RH  084%=      5-min Rain = 0
KMC1 251239Z 12009KT 23/20 A30 RMK A01 T02290201  RH  084%=      5-min Rain = 0
KMC1 251240Z 12006KT 23/20 A30 RMK A01 T02300201  RH  084%=      5-min Rain = 0
KMC1 251241Z 13010KT 23/20 A30 RMK A01 T02290201  RH  084%=      5-min Rain = 0
KMC1 251242Z 13007KT 23/20 A30 RMK A01 T02300202  RH  084%=      5-min Rain = 0
KMC1 251243Z 12008KT 23/20 A30 RMK A01 T02300202  RH  084%=      5-min Rain = 0
KMC1 251244Z 12008KT 23/20 A30 RMK A01 T02300202  RH  084%=      5-min Rain = 0
KMC1 251245Z 13007KT 23/20 A30 RMK A01 T02310202  RH  084%=      5-min Rain = 0
KMC1 251246Z 13007KT 23/20 A30 RMK A01 T02310202  RH  084%=      5-min Rain = 0
KMC1 251247Z 12008KT 23/20 A30 RMK A01 T02300202  RH  084%=      5-min Rain = 0
KMC1 251248Z 13009KT 23/20 A30 RMK A01 T02310202  RH  084%=      5-min Rain = 0
KMC1 251249Z 12008KT 23/20 A30 RMK A01 T02310202  RH  084%=      5-min Rain = 0
KMC1 251250Z 13008KT 23/20 A30 RMK A01 T02310202  RH  084%=      5-min Rain = 0
KMC1 251251Z 12007KT 23/20 A30 RMK A01 T02320202  RH  084%=      5-min Rain = 0
KMC1 251252Z 12009KT 23/20 A30 RMK A01 T02320202  RH  084%=      5-min Rain = 0
KMC1 251253Z 13006KT 23/20 A30 RMK A01 T02310202  RH  083%=      5-min Rain = 0
KMC1 251254Z 12006KT 23/20 A30 RMK A01 T02310202  RH  084%=      5-min Rain = 0
KMC1 251255Z 13008KT 23/20 A30 RMK A01 T02310202  RH  084%=      5-min Rain = 0
KMC1 251256Z 12009KT 23/20 A30 RMK A01 T02320202  RH  083%=      5-min Rain = 0
KMC1 251257Z 12009KT 23/20 A3001 RMK A01 T02320202  RH  083%=      5-min Rain = 0
KMC1 251258Z 13009KT 23/20 A3001 RMK A01 T02320202  RH  083%=      5-min Rain = 0
KMC1 251259Z 14007KT 23/20 A3001 RMK A01 T02320202  RH  083%=      5-min Rain = 0
KMC1 251300Z 12006KT 23/20 A3001 RMK A01 T02320203  RH  084%=      5-min Rain = 0
KMC1 251301Z 13007KT 23/20 A3001 RMK A01 T02320203  RH  084%=      5-min Rain = 0
KMC1 251302Z 14005KT 23/20 A3001 RMK A01 T02320203  RH  084%=      5-min Rain = 0
KMC1 251303Z 12008KT 23/20 A3001 RMK A01 T02320203  RH  084%=      5-min Rain = 0
KMC1 251304Z 13010KT 23/20 A3001 RMK A01 T02320203  RH  084%=      5-min Rain = 0
KMC1 251305Z 13009KT 23/20 A3001 RMK A01 T02320203  RH  084%=      5-min Rain = 0
KMC1 251306Z 13010G15KT 23/20 A3001 RMK A01 T02330203  RH  084%=      5-min Rain = 0
KMC1 251307Z 13010KT 23/20 A3001 RMK A01 T02320203  RH  083%=      5-min Rain = 0
KMC1 251308Z 13009G14KT 23/20 A3001 RMK A01 T02320203  RH  084%=      5-min Rain = 0
KMC1 251309Z 13005KT 23/20 A3001 RMK A01 T02320203  RH  084%=      5-min Rain = 0
KMC1 251310Z 13007KT 23/20 A3001 RMK A01 T02320204  RH  084%=      5-min Rain = 0
KMC1 251311Z 13009KT 23/20 A3001 RMK A01 T02330204  RH  084%=      5-min Rain = 0
KMC1 251312Z 13010KT 23/20 A3001 RMK A01 T02330204  RH  084%=      5-min Rain = 0
KMC1 251313Z 12012KT 23/20 A3001 RMK A01 T02330204  RH  084%=      5-min Rain = 0
KMC1 251314Z 13009KT 23/20 A3001 RMK A01 T02330204  RH  084%=      5-min Rain = 0
KMC1 251315Z 11007KT 23/20 A3001 RMK A01 T02330204  RH  084%=      5-min Rain = 0
KMC1 251316Z 12009KT 23/20 A3001 RMK A01 T02320204  RH  084%=      5-min Rain = 0
KMC1 251317Z 12007G12KT 23/20 A3001 RMK A01 T02320204  RH  084%=      5-min Rain = 0
KMC1 251318Z 11007KT 23/21 A3001 RMK A01 T02330206  RH  085%=      5-min Rain = 0
KMC1 251319Z 12006KT 23/21 A3001 RMK A01 T02320206  RH  085%=      5-min Rain = 0
KMC1 251320Z 12006KT 23/21 A3001 RMK A01 T02320206  RH  085%=      5-min Rain = 0
KMC1 251321Z 13009KT 23/21 A3002 RMK A01 T02320206  RH  085%=      5-min Rain = 0
KMC1 251322Z 12007KT 23/21 A3002 RMK A01 T02320206  RH  085%=      5-min Rain = 0
KMC1 251323Z 12009KT 23/21 A3002 RMK A01 T02320206  RH  085%=      5-min Rain = 0
KMC1 251324Z 12007KT 23/21 A3002 RMK A01 T02320206  RH  086%=      5-min Rain = 0
KMC1 251325Z 11007KT 23/21 A3002 RMK A01 T02310206  RH  086%=      5-min Rain = 0
KMC1 251326Z 12010KT 23/21 A3002 RMK A01 T02310206  RH  086%=      5-min Rain = 0
KMC1 251327Z 11007KT 23/21 A3002 RMK A01 T02310206  RH  086%=      5-min Rain = 0
KMC1 251328Z 13008KT 23/21 A3002 RMK A01 T02310206  RH  086%=      5-min Rain = 0
KMC1 251329Z 12008KT 23/21 A3002 RMK A01 T02310207  RH  086%=      5-min Rain = 0
KMC1 251330Z 12011KT 23/21 A3002 RMK A01 T02310206  RH  086%=      5-min Rain = 0
KMC1 251331Z 12010KT 23/21 A3002 RMK A01 T02310206  RH  086%=      5-min Rain = 0
KMC1 251332Z 13009KT 23/21 A3002 RMK A01 T02310206  RH  086%=      5-min Rain = 0
KMC1 251333Z 12008KT 23/21 A3002 RMK A01 T02310206  RH  086%=      5-min Rain = 0
KMC1 251334Z 13007KT 23/21 A3002 RMK A01 T02310206  RH  086%=      5-min Rain = 0
KMC1 251335Z 13006KT 23/21 A3002 RMK A01 T02320207  RH  086%=      5-min Rain = 0
KMC1 251336Z 12008KT 23/21 A3002 RMK A01 T02320207  RH  086%=      5-min Rain = 0
KMC1 251337Z 12008KT 23/21 A3002 RMK A01 T02330207  RH  085%=      5-min Rain = 0
KMC1 251338Z 13007KT 23/21 A3002 RMK A01 T02330206  RH  085%=      5-min Rain = 0
KMC1 251339Z 12009KT 23/21 A3002 RMK A01 T02330206  RH  085%=      5-min Rain = 0
KMC1 251340Z 12010KT 23/21 A3002 RMK A01 T02330206  RH  085%=      5-min Rain = 0
KMC1 251341Z 13010KT 23/21 A3002 RMK A01 T02330206  RH  085%=      5-min Rain = 0
KMC1 251342Z 11008KT 23/21 A3002 RMK A01 T02330206  RH  085%=      5-min Rain = 0
KMC1 251343Z 12013KT 23/21 A3002 RMK A01 T02340207  RH  085%=      5-min Rain = 0
KMC1 251344Z 12012KT 23/21 A3002 RMK A01 T02340206  RH  084%=      5-min Rain = 0
KMC1 251345Z 12010KT 24/21 A3002 RMK A01 T02350206  RH  084%=      5-min Rain = 0
KMC1 251346Z 13010KT 24/21 A3002 RMK A01 T02350206  RH  084%=      5-min Rain = 0
KMC1 251347Z 12008KT 24/21 A3002 RMK A01 T02350206  RH  084%=      5-min Rain = 0
KMC1 251348Z 13007KT 24/21 A3002 RMK A01 T02360207  RH  084%=      5-min Rain = 0
KMC1 251349Z 13006G11KT 24/21 A3002 RMK A01 T02370208  RH  084%=      5-min Rain = 0
KMC1 251350Z 13007KT 24/21 A3002 RMK A01 T02380208  RH  083%=      5-min Rain = 0
KMC1 251351Z 13007KT 24/21 A3002 RMK A01 T02380208  RH  083%=      5-min Rain = 0
KMC1 251352Z 13010KT 24/21 A3002 RMK A01 T02380207  RH  083%=      5-min Rain = 0
KMC1 251353Z 13011KT 24/21 A3002 RMK A01 T02380207  RH  083%=      5-min Rain = 0
KMC1 251354Z 14007KT 24/21 A3003 RMK A01 T02390208  RH  083%=      5-min Rain = 0
KMC1 251355Z 12011G16KT 24/21 A3002 RMK A01 T02380208  RH  083%=      5-min Rain = 0
KMC1 251356Z 14008KT 24/21 A3002 RMK A01 T02380207  RH  083%=      5-min Rain = 0
KMC1 251357Z 13011G16KT 24/21 A3003 RMK A01 T02370208  RH  083%=      5-min Rain = 0
KMC1 251358Z 13009KT 24/21 A3003 RMK A01 T02380207  RH  083%=      5-min Rain = 0
KMC1 251359Z 12009KT 24/21 A3003 RMK A01 T02370207  RH  083%=      5-min Rain = 0
KMC1 251400Z 13009KT 24/21 A3003 RMK A01 T02370207  RH  083%=      5-min Rain = 0
KMC1 251401Z 14010KT 24/21 A3003 RMK A01 T02370208  RH  084%=      5-min Rain = 0
KMC1 251402Z 14006KT 24/21 A3003 RMK A01 T02370208  RH  084%=      5-min Rain = 0
KMC1 251403Z 12010G15KT 24/21 A3003 RMK A01 T02360208  RH  084%=      5-min Rain = 0
KMC1 251404Z 13014G19KT 24/21 A3003 RMK A01 T02360207  RH  084%=      5-min Rain = 0
KMC1 251405Z 13012KT 24/21 A3003 RMK A01 T02350207  RH  084%=      5-min Rain = 0
KMC1 251406Z 13010KT 24/21 A3003 RMK A01 T02350207  RH  084%=      5-min Rain = 0
KMC1 251407Z 14009KT 24/21 A3003 RMK A01 T02350207  RH  084%=      5-min Rain = 0
KMC1 251408Z 14007KT 24/21 A3003 RMK A01 T02350208  RH  085%=      5-min Rain = 0
KMC1 251409Z 13010KT 24/21 A3003 RMK A01 T02350208  RH  085%=      5-min Rain = 0
KMC1 251410Z 13010KT 24/21 A3003 RMK A01 T02350207  RH  084%=      5-min Rain = 0
KMC1 251411Z 13013KT 24/21 A3003 RMK A01 T02360208  RH  084%=      5-min Rain = 0
KMC1 251412Z 13012KT 24/21 A3003 RMK A01 T02360207  RH  084%=      5-min Rain = 0
KMC1 251413Z 13009G15KT 24/21 A3003 RMK A01 T02360207  RH  084%=      5-min Rain = 0
KMC1 251414Z 13009KT 24/21 A3003 RMK A01 T02360208  RH  084%=      5-min Rain = 0
KMC1 251415Z 14009KT 24/21 A3003 RMK A01 T02360208  RH  084%=      5-min Rain = 0
KMC1 251416Z 14011KT 24/21 A3003 RMK A01 T02370208  RH  084%=      5-min Rain = 0
KMC1 251417Z 13006KT 24/21 A3003 RMK A01 T02370209  RH  084%=      5-min Rain = 0
KMC1 251418Z 14007G12KT 24/21 A3003 RMK A01 T02390210  RH  084%=      5-min Rain = 0
KMC1 251419Z 14006KT 24/21 A3003 RMK A01 T02400211  RH  084%=      5-min Rain = 0
KMC1 251420Z 13006KT 24/21 A3003 RMK A01 T02420212  RH  083%=      5-min Rain = 0
KMC1 251421Z 13007KT 24/21 A3003 RMK A01 T02430213  RH  083%=      5-min Rain = 0
KMC1 251422Z 13011KT 25/21 A3003 RMK A01 T02450211  RH  081%=      5-min Rain = 0
KMC1 251423Z 14010KT 24/21 A3003 RMK A01 T02440211  RH  082%=      5-min Rain = 0
KMC1 251424Z 14009KT 24/21 A3003 RMK A01 T02430210  RH  082%=      5-min Rain = 0
KMC1 251425Z 13010KT 24/21 A3003 RMK A01 T02420210  RH  082%=      5-min Rain = 0
KMC1 251426Z 13011G17KT 24/21 A3003 RMK A01 T02420210  RH  083%=      5-min Rain = 0
KMC1 251427Z 12013KT 24/21 A3003 RMK A01 T02410210  RH  083%=      5-min Rain = 0
KMC1 251428Z 12012KT 24/21 A3003 RMK A01 T02400209  RH  083%=      5-min Rain = 0
KMC1 251429Z 13010G15KT 24/21 A3003 RMK A01 T02390210  RH  084%=      5-min Rain = 0
KMC1 251430Z 13011KT 24/21 A3003 RMK A01 T02390210  RH  084%=      5-min Rain = 0
KMC1 251431Z 13009KT 24/21 A3003 RMK A01 T02390210  RH  084%=      5-min Rain = 0
KMC1 251432Z 13010KT 24/21 A3003 RMK A01 T02390210  RH  084%=      5-min Rain = 0
KMC1 251433Z 14009G14KT 24/21 A3003 RMK A01 T02390210  RH  084%=      5-min Rain = 0
KMC1 251434Z 14007KT 24/21 A3003 RMK A01 T02390210  RH  084%=      5-min Rain = 0
KMC1 251435Z 14007KT 24/21 A3003 RMK A01 T02390211  RH  084%=      5-min Rain = 0
KMC1 251436Z 13009KT 24/21 A3003 RMK A01 T02400211  RH  084%=      5-min Rain = 0
KMC1 251437Z 12011G16KT 24/21 A3003 RMK A01 T02400210  RH  083%=      5-min Rain = 0
KMC1 251438Z 13010KT 24/21 A3003 RMK A01 T02400209  RH  083%=      5-min Rain = 0
KMC1 251439Z 15009KT 24/21 A3003 RMK A01 T02400210  RH  083%=      5-min Rain = 0
KMC1 251440Z 13008KT 24/21 A3003 RMK A01 T02400210  RH  083%=      5-min Rain = 0
KMC1 251441Z 13007G13KT 24/21 A3003 RMK A01 T02400211  RH  084%=      5-min Rain = 0
KMC1 251442Z 13011KT 24/21 A3003 RMK A01 T02400210  RH  083%=      5-min Rain = 0
KMC1 251443Z 13010KT 24/21 A3003 RMK A01 T02410209  RH  082%=      5-min Rain = 0
KMC1 251444Z 15010G15KT 24/21 A3003 RMK A01 T02420209  RH  082%=      5-min Rain = 0
KMC1 251445Z 12008G13KT 24/21 A3003 RMK A01 T02420209  RH  082%=      5-min Rain = 0
KMC1 251446Z 13013G18KT 24/21 A3003 RMK A01 T02420209  RH  082%=      5-min Rain = 0
KMC1 251447Z 14013KT 24/21 A3003 RMK A01 T02420209  RH  082%=      5-min Rain = 0
KMC1 251448Z 14012G17KT 24/21 A3003 RMK A01 T02420209  RH  082%=      5-min Rain = 0
KMC1 251449Z 14013KT 24/21 A3003 RMK A01 T02420208  RH  081%=      5-min Rain = 0
KMC1 251450Z 14014KT 24/21 A3003 RMK A01 T02420208  RH  081%=      5-min Rain = 0
KMC1 251451Z 14011KT 24/21 A3003 RMK A01 T02420209  RH  082%=      5-min Rain = 0
KMC1 251452Z 14008KT 24/21 A3003 RMK A01 T02420210  RH  082%=      5-min Rain = 0
KMC1 251453Z 13008KT 24/21 A3003 RMK A01 T02420210  RH  082%=      5-min Rain = 0
KMC1 251454Z 13008KT 24/21 A3003 RMK A01 T02420211  RH  082%=      5-min Rain = 0
KMC1 251455Z 14007KT 24/21 A3003 RMK A01 T02430210  RH  082%=      5-min Rain = 0
KMC1 251456Z 13008KT 24/21 A3003 RMK A01 T02420210  RH  082%=      5-min Rain = 0
KMC1 251457Z 13010KT 24/21 A3003 RMK A01 T02430210  RH  082%=      5-min Rain = 0
KMC1 251458Z 13008KT 24/21 A3003 RMK A01 T02430210  RH  082%=      5-min Rain = 0
KMC1 251459Z 13010G15KT 24/21 A3003 RMK A01 T02420210  RH  082%=      5-min Rain = 0
KMC1 251500Z 14010G15KT 24/21 A3003 RMK A01 T02430210  RH  082%=      5-min Rain = 0
KMC1 251501Z 14007KT 24/21 A3003 RMK A01 T02430210  RH  082%=      5-min Rain = 0
KMC1 251502Z 14008KT 24/21 A3003 RMK A01 T02430211  RH  082%=      5-min Rain = 0
KMC1 251503Z 12008G13KT 24/21 A3003 RMK A01 T02430211  RH  082%=      5-min Rain = 0
KMC1 251504Z 13009KT 24/21 A3003 RMK A01 T02430210  RH  082%=      5-min Rain = 0
KMC1 251505Z 13007KT 24/21 A3003 RMK A01 T02430211  RH  082%=      5-min Rain = 0
KMC1 251506Z 14007KT 24/21 A3003 RMK A01 T02430211  RH  083%=      5-min Rain = 0
KMC1 251507Z 13011KT 24/21 A3003 RMK A01 T02430211  RH  082%=      5-min Rain = 0
KMC1 251508Z 13009KT 24/21 A3003 RMK A01 T02430211  RH  082%=      5-min Rain = 0
KMC1 251509Z 13012G18KT 24/21 A3003 RMK A01 T02430211  RH  082%=      5-min Rain = 0
KMC1 251510Z 13012G19KT 24/21 A3003 RMK A01 T02440210  RH  082%=      5-min Rain = 0
KMC1 251511Z 13010KT 24/21 A3003 RMK A01 T02430211  RH  082%=      5-min Rain = 0
KMC1 251512Z 14008KT 24/21 A3003 RMK A01 T02430211  RH  082%=      5-min Rain = 0
KMC1 251513Z 15010KT 24/21 A3003 RMK A01 T02440211  RH  082%=      5-min Rain = 0
KMC1 251514Z 14012KT 24/21 A3003 RMK A01 T02430210  RH  081%=      5-min Rain = 0
KMC1 251515Z 13010KT 24/21 A3003 RMK A01 T02430210  RH  082%=      5-min Rain = 0
KMC1 251516Z 13009KT 24/21 A3003 RMK A01 T02430211  RH  082%=      5-min Rain = 0
KMC1 251517Z 12010KT 24/21 A3004 RMK A01 T02440212  RH  082%=      5-min Rain = 0
KMC1 251518Z 13009KT 24/21 A3003 RMK A01 T02440211  RH  082%=      5-min Rain = 0
KMC1 251519Z 14010KT 24/21 A3003 RMK A01 T02440210  RH  082%=      5-min Rain = 0
KMC1 251520Z 13011G17KT 24/21 A3004 RMK A01 T02440211  RH  082%=      5-min Rain = 0
KMC1 251521Z 13009KT 25/21 A3004 RMK A01 T02450211  RH  081%=      5-min Rain = 0
KMC1 251522Z 13010G16KT 25/21 A3004 RMK A01 T02460211  RH  081%=      5-min Rain = 0
KMC1 251523Z 13011G16KT 25/21 A3004 RMK A01 T02460211  RH  081%=      5-min Rain = 0
KMC1 251524Z 14009KT 25/21 A3004 RMK A01 T02470212  RH  081%=      5-min Rain = 0
KMC1 251525Z 13008KT 25/21 A3004 RMK A01 T02470212  RH  081%=      5-min Rain = 0
KMC1 251526Z 13008G13KT 25/21 A3004 RMK A01 T02480213  RH  081%=      5-min Rain = 0
KMC1 251527Z 14007KT 25/21 A3004 RMK A01 T02480212  RH  080%=      5-min Rain = 0
KMC1 251528Z 14009KT 25/21 A3004 RMK A01 T02480213  RH  081%=      5-min Rain = 0
KMC1 251529Z 14007KT 25/21 A3004 RMK A01 T02480213  RH  081%=      5-min Rain = 0
KMC1 251530Z 14008KT 25/21 A3004 RMK A01 T02480213  RH  081%=      5-min Rain = 0
KMC1 251531Z 15007KT 25/21 A3004 RMK A01 T02480212  RH  081%=      5-min Rain = 0
KMC1 251532Z 14006KT 25/21 A3004 RMK A01 T02480213  RH  081%=      5-min Rain = 0
KMC1 251533Z 14009G15KT 25/21 A3004 RMK A01 T02490213  RH  080%=      5-min Rain = 0
KMC1 251534Z 14011KT 25/21 A3004 RMK A01 T02490211  RH  079%=      5-min Rain = 0
KMC1 251535Z 14011KT 25/21 A3004 RMK A01 T02490211  RH  079%=      5-min Rain = 0
KMC1 251536Z 15012KT 25/21 A3004 RMK A01 T02490210  RH  079%=      5-min Rain = 0
KMC1 251537Z 16009KT 25/21 A3004 RMK A01 T02480210  RH  079%=      5-min Rain = 0
KMC1 251538Z 15011G18KT 25/21 A3004 RMK A01 T02490211  RH  080%=      5-min Rain = 0
KMC1 251539Z 15013KT 25/21 A3004 RMK A01 T02480210  RH  079%=      5-min Rain = 0
KMC1 251540Z 14011G16KT 25/21 A3004 RMK A01 T02490209  RH  079%=      5-min Rain = 0
KMC1 251541Z 14008KT 25/21 A3004 RMK A01 T02500211  RH  079%=      5-min Rain = 0
KMC1 251542Z 15008G13KT 25/21 A3004 RMK A01 T02510212  RH  079%=      5-min Rain = 0
KMC1 251543Z 15008KT 25/21 A3004 RMK A01 T02520213  RH  079%=      5-min Rain = 0
KMC1 251544Z 14010G16KT 25/21 A3004 RMK A01 T02520211  RH  078%=      5-min Rain = 0
KMC1 251545Z 15006KT 25/21 A3004 RMK A01 T02530213  RH  079%=      5-min Rain = 0
KMC1 251546Z 14011G19KT 25/21 A3004 RMK A01 T02540213  RH  078%=      5-min Rain = 0
KMC1 251547Z 15012KT 25/21 A3004 RMK A01 T02530211  RH  078%=      5-min Rain = 0
KMC1 251548Z 14010G15KT 25/21 A3004 RMK A01 T02530212  RH  078%=      5-min Rain = 0
KMC1 251549Z 15010KT 25/21 A3004 RMK A01 T02530212  RH  078%=      5-min Rain = 0
KMC1 251550Z 14009KT 25/21 A3004 RMK A01 T02530212  RH  078%=      5-min Rain = 0
KMC1 251551Z 15009KT 25/21 A3004 RMK A01 T02530212  RH  078%=      5-min Rain = 0
KMC1 251552Z 15009KT 25/21 A3004 RMK A01 T02540212  RH  078%=      5-min Rain = 0
KMC1 251553Z 15010KT 25/21 A3004 RMK A01 T02540212  RH  078%=      5-min Rain = 0
KMC1 251554Z 16014KT 25/21 A3004 RMK A01 T02530211  RH  077%=      5-min Rain = 0
KMC1 251555Z 15011KT 25/21 A3004 RMK A01 T02540211  RH  077%=      5-min Rain = 0
KMC1 251556Z 15009KT 26/21 A3004 RMK A01 T02550212  RH  077%=      5-min Rain = 0
KMC1 251557Z 15010KT 26/21 A3004 RMK A01 T02550212  RH  077%=      5-min Rain = 0
KMC1 251558Z 16009G14KT 26/21 A3004 RMK A01 T02550212  RH  077%=      5-min Rain = 0
KMC1 251559Z 15009KT 26/21 A3004 RMK A01 T02550212  RH  077%=      5-min Rain = 0
KMC1 251600Z 15009KT 25/21 A3004 RMK A01 T02540212  RH  077%=      5-min Rain = 0
KMC1 251601Z 15010KT 25/21 A3004 RMK A01 T02540211  RH  077%=      5-min Rain = 0
KMC1 251602Z 16007G13KT 25/21 A3004 RMK A01 T02540213  RH  078%=      5-min Rain = 0
KMC1 251603Z 16011G16KT 26/21 A3004 RMK A01 T02560213  RH  077%=      5-min Rain = 0
KMC1 251604Z 16012G18KT 26/21 A3004 RMK A01 T02570210  RH  075%=      5-min Rain = 0
KMC1 251605Z 16011G16KT 26/21 A3004 RMK A01 T02580211  RH  075%=      5-min Rain = 0
KMC1 251606Z 16010KT 26/21 A3004 RMK A01 T02580212  RH  076%=      5-min Rain = 0
KMC1 251607Z 14012G17KT 26/21 A3004 RMK A01 T02580211  RH  075%=      5-min Rain = 0
KMC1 251608Z 15010G16KT 26/21 A3004 RMK A01 T02580211  RH  075%=      5-min Rain = 0
KMC1 251609Z 14011G16KT 26/21 A3004 RMK A01 T02590212  RH  075%=      5-min Rain = 0
KMC1 251610Z 15009G17KT 26/21 A3004 RMK A01 T02590212  RH  075%=      5-min Rain = 0
KMC1 251611Z 14011KT 26/21 A3004 RMK A01 T02610212  RH  075%=      5-min Rain = 0
KMC1 251612Z 15011G16KT 26/21 A3004 RMK A01 T02620213  RH  074%=      5-min Rain = 0
KMC1 251613Z 15010KT 26/21 A3004 RMK A01 T02630212  RH  074%=      5-min Rain = 0
KMC1 251614Z 16009KT 26/21 A3004 RMK A01 T02630214  RH  074%=      5-min Rain = 0
KMC1 251615Z 16011KT 26/21 A3004 RMK A01 T02630212  RH  074%=      5-min Rain = 0
KMC1 251616Z 16008KT 26/21 A3004 RMK A01 T02640212  RH  073%=      5-min Rain = 0
KMC1 251617Z 16009KT 26/21 A3004 RMK A01 T02640214  RH  074%=      5-min Rain = 0
KMC1 251618Z 16009KT 27/21 A3004 RMK A01 T02660214  RH  073%=      5-min Rain = 0
KMC1 251619Z 16008KT 27/22 A3004 RMK A01 T02680216  RH  073%=      5-min Rain = 0
KMC1 251620Z 14007KT 27/22 A3004 RMK A01 T02720222  RH  074%=      5-min Rain = 0
KMC1 251621Z 14011KT 28/22 A3004 RMK A01 T02760219  RH  071%=      5-min Rain = 0
KMC1 251622Z 14013KT 28/22 A3004 RMK A01 T02770215  RH  069%=      5-min Rain = 0
KMC1 251623Z 14013KT 27/21 A3004 RMK A01 T02730212  RH  069%=      5-min Rain = 0
KMC1 251624Z 13012G18KT 27/21 A3004 RMK A01 T02710211  RH  070%=      5-min Rain = 0
KMC1 251625Z 13011G17KT 27/21 A3004 RMK A01 T02700212  RH  071%=      5-min Rain = 0
KMC1 251626Z 14013KT 27/21 A3004 RMK A01 T02700213  RH  071%=      5-min Rain = 0
KMC1 251627Z 14012G17KT 27/21 A3004 RMK A01 T02690211  RH  070%=      5-min Rain = 0
KMC1 251628Z 14008KT 27/21 A3004 RMK A01 T02680212  RH  071%=      5-min Rain = 0
KMC1 251629Z 15008KT 27/21 A3004 RMK A01 T02670214  RH  072%=      5-min Rain = 0
KMC1 251630Z 15009KT 27/21 A3005 RMK A01 T02680213  RH  072%=      5-min Rain = 0
KMC1 251631Z 14009KT 27/21 A3004 RMK A01 T02680213  RH  072%=      5-min Rain = 0
KMC1 251632Z 15011KT 27/21 A3004 RMK A01 T02690213  RH  071%=      5-min Rain = 0
KMC1 251633Z 13010KT 27/21 A3004 RMK A01 T02710213  RH  071%=      5-min Rain = 0
KMC1 251634Z 14011KT 27/21 A3004 RMK A01 T02720211  RH  069%=      5-min Rain = 0
KMC1 251635Z 15010G18KT 27/21 A3004 RMK A01 T02720211  RH  070%=      5-min Rain = 0
KMC1 251636Z 15010G16KT 27/21 A3004 RMK A01 T02710210  RH  069%=      5-min Rain = 0
KMC1 251637Z 16012KT 27/21 A3004 RMK A01 T02710209  RH  069%=      5-min Rain = 0
KMC1 251638Z 16010KT 27/21 A3004 RMK A01 T02700208  RH  069%=      5-min Rain = 0
KMC1 251639Z 15007G12KT 27/21 A3004 RMK A01 T02710211  RH  070%=      5-min Rain = 0
KMC1 251640Z 15010G16KT 27/21 A3005 RMK A01 T02720211  RH  069%=      5-min Rain = 0
KMC1 251641Z 15011KT 27/21 A3004 RMK A01 T02700207  RH  068%=      5-min Rain = 0
KMC1 251642Z 15010KT 27/21 A3005 RMK A01 T02690210  RH  070%=      5-min Rain = 0
KMC1 251643Z 14009KT 27/21 A3005 RMK A01 T02670209  RH  070%=      5-min Rain = 0
KMC1 251644Z 13012KT 27/21 A3005 RMK A01 T02660209  RH  071%=      5-min Rain = 0
KMC1 251645Z 14012KT 27/21 A3005 RMK A01 T02650208  RH  071%=      5-min Rain = 0
KMC1 251646Z 13013KT 26/21 A3004 RMK A01 T02640208  RH  072%=      5-min Rain = 0
KMC1 251647Z 12013KT 26/21 A3004 RMK A01 T02630208  RH  072%=      5-min Rain = 0
KMC1 251648Z 13014KT 26/21 A3004 RMK A01 T02630209  RH  072%=      5-min Rain = 0
KMC1 251649Z 13010KT 26/21 A3004 RMK A01 T02640208  RH  071%=      5-min Rain = 0
KMC1 251650Z 13011KT 27/21 A3004 RMK A01 T02650210  RH  072%=      5-min Rain = 0
KMC1 251651Z 13009KT 27/21 A3004 RMK A01 T02670211  RH  071%=      5-min Rain = 0
KMC1 251652Z 15008KT 27/21 A3004 RMK A01 T02690211  RH  071%=      5-min Rain = 0
KMC1 251653Z 15008KT 27/21 A3004 RMK A01 T02700211  RH  070%=      5-min Rain = 0
KMC1 251654Z 14008KT 27/21 A3004 RMK A01 T02720213  RH  070%=      5-min Rain = 0
KMC1 251655Z 16010KT 27/21 A3004 RMK A01 T02740212  RH  069%=      5-min Rain = 0
KMC1 251656Z 16011G19KT 28/21 A3004 RMK A01 T02750209  RH  067%=      5-min Rain = 0
KMC1 251657Z 15009KT 28/21 A3004 RMK A01 T02760213  RH  069%=      5-min Rain = 0
KMC1 251658Z 14010G16KT 28/21 A3004 RMK A01 T02780212  RH  068%=      5-min Rain = 0
KMC1 251659Z 14009G15KT 28/21 A3004 RMK A01 T02800212  RH  067%=      5-min Rain = 0
KMC1 251700Z 13009G19KT 28/22 A3004 RMK A01 T02810215  RH  067%=      5-min Rain = 0
KMC1 251701Z 13014G19KT 28/21 A3004 RMK A01 T02810210  RH  065%=      5-min Rain = 0
KMC1 251702Z 13015KT 28/21 A3004 RMK A01 T02780210  RH  066%=      5-min Rain = 0
KMC1 251703Z 13011KT 28/21 A3004 RMK A01 T02770211  RH  067%=      5-min Rain = 0
KMC1 251704Z 13013KT 28/21 A3004 RMK A01 T02770212  RH  068%=      5-min Rain = 0
KMC1 251705Z 15010G15KT 28/21 A3004 RMK A01 T02780211  RH  067%=      5-min Rain = 0
KMC1 251706Z 15012KT 28/21 A3004 RMK A01 T02780211  RH  067%=      5-min Rain = 0
KMC1 251707Z 14012KT 28/21 A3004 RMK A01 T02760210  RH  067%=      5-min Rain = 0
KMC1 251708Z 14013G19KT 28/21 A3004 RMK A01 T02750208  RH  067%=      5-min Rain = 0
KMC1 251709Z 14013G18KT 27/21 A3004 RMK A01 T02720206  RH  067%=      5-min Rain = 0
KMC1 251710Z 14012KT 27/21 A3004 RMK A01 T02700206  RH  068%=      5-min Rain = 0
KMC1 251711Z 14011KT 27/21 A3004 RMK A01 T02690207  RH  069%=      5-min Rain = 0
KMC1 251712Z 15009KT 27/21 A3004 RMK A01 T02690208  RH  069%=      5-min Rain = 0
KMC1 251713Z 15011KT 27/21 A3004 RMK A01 T02710210  RH  069%=      5-min Rain = 0
KMC1 251714Z 15006G11KT 27/21 A3004 RMK A01 T02740211  RH  068%=      5-min Rain = 0
KMC1 251715Z 16008KT 28/21 A3004 RMK A01 T02780212  RH  067%=      5-min Rain = 0
KMC1 251716Z 15008KT 28/21 A3004 RMK A01 T02810213  RH  067%=      5-min Rain = 0
KMC1 251717Z 14013KT 28/21 A3004 RMK A01 T02830211  RH  065%=      5-min Rain = 0
KMC1 251718Z 14013G19KT 29/21 A3004 RMK A01 T02850211  RH  064%=      5-min Rain = 0
KMC1 251719Z 14013KT 29/21 A3004 RMK A01 T02850209  RH  063%=      5-min Rain = 0
KMC1 251720Z 13011KT 28/21 A3004 RMK A01 T02840209  RH  064%=      5-min Rain = 0
KMC1 251721Z 14011KT 28/21 A3003 RMK A01 T02810207  RH  064%=      5-min Rain = 0
KMC1 251722Z 14011KT 28/21 A3003 RMK A01 T02790207  RH  065%=      5-min Rain = 0
KMC1 251723Z 14014KT 28/21 A3004 RMK A01 T02770205  RH  065%=      5-min Rain = 0
KMC1 251724Z 13013G18KT 28/20 A3003 RMK A01 T02750203  RH  065%=      5-min Rain = 0
KMC1 251725Z 14011KT 27/20 A3003 RMK A01 T02740204  RH  066%=      5-min Rain = 0
KMC1 251726Z 14010G15KT 27/20 A3003 RMK A01 T02740204  RH  066%=      5-min Rain = 0
KMC1 251727Z 16007KT 27/21 A3003 RMK A01 T02740205  RH  066%=      5-min Rain = 0
KMC1 251728Z 15007KT 28/21 A3003 RMK A01 T02750207  RH  066%=      5-min Rain = 0
KMC1 251729Z 16010G16KT 28/21 A3003 RMK A01 T02760207  RH  066%=      5-min Rain = 0
KMC1 251730Z 14007KT 28/21 A3003 RMK A01 T02770206  RH  065%=      5-min Rain = 0
KMC1 251731Z 14009G16KT 28/21 A3003 RMK A01 T02790207  RH  065%=      5-min Rain = 0
KMC1 251732Z 15009G17KT 28/21 A3003 RMK A01 T02810209  RH  065%=      5-min Rain = 0
KMC1 251733Z 14013G19KT 28/21 A3003 RMK A01 T02820206  RH  063%=      5-min Rain = 0
KMC1 251734Z 13010KT 28/21 A3003 RMK A01 T02830207  RH  063%=      5-min Rain = 0
KMC1 251735Z 14011G18KT 29/21 A3003 RMK A01 T02860207  RH  063%=      5-min Rain = 0
KMC1 251736Z 14014KT 29/21 A3003 RMK A01 T02880206  RH  061%=      5-min Rain = 0
KMC1 251737Z 14015KT 29/20 A3003 RMK A01 T02880204  RH  060%=      5-min Rain = 0
KMC1 251738Z 14009KT 29/21 A3003 RMK A01 T02880206  RH  061%=      5-min Rain = 0
KMC1 251739Z 14012G18KT 29/21 A3003 RMK A01 T02880208  RH  062%=      5-min Rain = 0
KMC1 251740Z 14011KT 29/21 A3003 RMK A01 T02910208  RH  061%=      5-min Rain = 0
KMC1 251741Z 14012KT 29/21 A3003 RMK A01 T02920206  RH  060%=      5-min Rain = 0
KMC1 251742Z 14010KT 29/21 A3003 RMK A01 T02920207  RH  060%=      5-min Rain = 0
KMC1 251743Z 14011KT 29/20 A3003 RMK A01 T02920203  RH  059%=      5-min Rain = 0
KMC1 251744Z 13015G21KT 29/21 A3003 RMK A01 T02890205  RH  060%=      5-min Rain = 0
KMC1 251745Z 14011G16KT 29/20 A3002 RMK A01 T02860204  RH  061%=      5-min Rain = 0
KMC1 251746Z 15009G15KT 29/21 A3003 RMK A01 T02870207  RH  062%=      5-min Rain = 0
KMC1 251747Z 13014G20KT 29/21 A3002 RMK A01 T02900207  RH  061%=      5-min Rain = 0
KMC1 251748Z 14011G18KT 29/21 A3002 RMK A01 T02910207  RH  061%=      5-min Rain = 0
KMC1 251749Z 15014G21KT 29/21 A3003 RMK A01 T02890208  RH  061%=      5-min Rain = 0
KMC1 251750Z 14014KT 29/21 A3002 RMK A01 T02870205  RH  061%=      5-min Rain = 0
KMC1 251751Z 13011G17KT 29/21 A3003 RMK A01 T02850206  RH  062%=      5-min Rain = 0
KMC1 251752Z 13016KT 29/21 A3002 RMK A01 T02860207  RH  062%=      5-min Rain = 0
KMC1 251753Z 14010G16KT 29/21 A3002 RMK A01 T02880209  RH  062%=      5-min Rain = 0
KMC1 251754Z 15007KT 29/21 A3002 RMK A01 T02910212  RH  062%=      5-min Rain = 0
KMC1 251755Z 14009G16KT 30/21 A3002 RMK A01 T02950213  RH  062%=      5-min Rain = 0
KMC1 251756Z 15009G14KT 30/21 A3002 RMK A01 T02970213  RH  061%=      5-min Rain = 0
KMC1 251757Z 16010G15KT 30/21 A3002 RMK A01 T02980212  RH  060%=      5-min Rain = 0
KMC1 251758Z 15016G21KT 30/21 A3002 RMK A01 T02970209  RH  059%=      5-min Rain = 0
KMC1 251759Z 13014G20KT 29/21 A3002 RMK A01 T02940208  RH  060%=      5-min Rain = 0
KMC1 251800Z 15014G22KT 29/21 A3002 RMK A01 T02910207  RH  061%=      5-min Rain = 0
KMC1 251801Z 15016G21KT 29/21 A3002 RMK A01 T02890206  RH  061%=      5-min Rain = 0
KMC1 251802Z 15016G21KT 29/21 A3002 RMK A01 T02890206  RH  061%=      5-min Rain = 0
KMC1 251803Z 15015G22KT 29/21 A3002 RMK A01 T02900206  RH  060%=      5-min Rain = 0
KMC1 251804Z 14014G20KT 29/21 A3002 RMK A01 T02910205  RH  060%=      5-min Rain = 0
KMC1 251805Z 15014G20KT 29/21 A3002 RMK A01 T02920205  RH  059%=      5-min Rain = 0
KMC1 251806Z 15011G17KT 29/21 A3002 RMK A01 T02920205  RH  060%=      5-min Rain = 0
KMC1 251807Z 15012G17KT 29/21 A3002 RMK A01 T02930207  RH  060%=      5-min Rain = 0
KMC1 251808Z 14013KT 29/20 A3002 RMK A01 T02940204  RH  059%=      5-min Rain = 0
KMC1 251809Z 16014G21KT 29/21 A3002 RMK A01 T02930205  RH  059%=      5-min Rain = 0
KMC1 251810Z 15017G22KT 29/20 A3002 RMK A01 T02920204  RH  059%=      5-min Rain = 0
KMC1 251811Z 14016G25KT 29/20 A3002 RMK A01 T02930203  RH  058%=      5-min Rain = 0
KMC1 251812Z 13014G19KT 30/21 A3002 RMK A01 T02950205  RH  058%=      5-min Rain = 0
KMC1 251813Z 13014G23KT 30/20 A3002 RMK A01 T02970203  RH  057%=      5-min Rain = 0
KMC1 251814Z 14015G21KT 30/20 A3002 RMK A01 T02970202  RH  057%=      5-min Rain = 0
KMC1 251815Z 13011G19KT 30/20 A3002 RMK A01 T02970204  RH  057%=      5-min Rain = 0
KMC1 251816Z 14014G23KT 30/20 A3002 RMK A01 T02980204  RH  057%=      5-min Rain = 0
KMC1 251817Z 14015G21KT 30/20 A3002 RMK A01 T02990201  RH  056%=      5-min Rain = 0
KMC1 251818Z 14011G18KT 30/20 A3002 RMK A01 T02970204  RH  057%=      5-min Rain = 0
KMC1 251819Z 15014G21KT 30/20 A3002 RMK A01 T02970203  RH  057%=      5-min Rain = 0
KMC1 251820Z 15015G20KT 30/20 A3002 RMK A01 T02980199  RH  056%=      5-min Rain = 0
KMC1 251821Z 15016G22KT 30/20 A3002 RMK A01 T02960200  RH  056%=      5-min Rain = 0
KMC1 251822Z 16011G16KT 30/20 A3002 RMK A01 T02950200  RH  057%=      5-min Rain = 0
KMC1 251823Z 16015KT 30/20 A3002 RMK A01 T02950200  RH  057%=      5-min Rain = 0
KMC1 251824Z 15013G19KT 30/20 A3002 RMK A01 T02950201  RH  057%=      5-min Rain = 0
KMC1 251825Z 15013G18KT 30/20 A3002 RMK A01 T02960203  RH  057%=      5-min Rain = 0
KMC1 251826Z 15008KT 30/21 A3002 RMK A01 T02970205  RH  058%=      5-min Rain = 0
KMC1 251827Z 14008KT 30/21 A3002 RMK A01 T02980207  RH  058%=      5-min Rain = 0
KMC1 251828Z 13010G17KT 30/21 A3002 RMK A01 T03000206  RH  057%=      5-min Rain = 0
KMC1 251829Z 13012KT 30/20 A3002 RMK A01 T03000202  RH  056%=      5-min Rain = 0
KMC1 251830Z 15011G18KT 30/20 A3002 RMK A01 T03010204  RH  056%=      5-min Rain = 0
KMC1 251831Z 14012G19KT 30/20 A3002 RMK A01 T03030203  RH  055%=      5-min Rain = 0
KMC1 251832Z 15014KT 31/20 A3002 RMK A01 T03050199  RH  053%=      5-min Rain = 0
KMC1 251833Z 16016G21KT 30/20 A3002 RMK A01 T03040201  RH  054%=      5-min Rain = 0
KMC1 251834Z 15013G18KT 30/20 A3001 RMK A01 T03020199  RH  054%=      5-min Rain = 0
KMC1 251835Z 15012G18KT 30/20 A3001 RMK A01 T03000201  RH  055%=      5-min Rain = 0
KMC1 251836Z 15012G19KT 30/20 A3001 RMK A01 T03000202  RH  056%=      5-min Rain = 0
KMC1 251837Z 15011G17KT 30/20 A3001 RMK A01 T03000204  RH  057%=      5-min Rain = 0
KMC1 251838Z 15013G18KT 30/20 A3001 RMK A01 T03010201  RH  055%=      5-min Rain = 0
KMC1 251839Z 15010G15KT 30/20 A3001 RMK A01 T03010201  RH  055%=      5-min Rain = 0
KMC1 251840Z 16011G17KT 30/20 A3001 RMK A01 T02990201  RH  056%=      5-min Rain = 0
KMC1 251841Z 16011KT 30/20 A3001 RMK A01 T02970201  RH  056%=      5-min Rain = 0
KMC1 251842Z 15011G16KT 30/20 A3001 RMK A01 T02960202  RH  057%=      5-min Rain = 0
KMC1 251843Z 14012G17KT 30/20 A3001 RMK A01 T02950200  RH  057%=      5-min Rain = 0
KMC1 251844Z 14016G24KT 29/20 A3001 RMK A01 T02940199  RH  056%=      5-min Rain = 0
KMC1 251845Z 14015G20KT 29/20 A3001 RMK A01 T02930198  RH  056%=      5-min Rain = 0
KMC1 251846Z 16016KT 29/20 A3001 RMK A01 T02920197  RH  057%=      5-min Rain = 0
KMC1 251847Z 15014G21KT 29/20 A3001 RMK A01 T02910197  RH  057%=      5-min Rain = 0
KMC1 251848Z 15012KT 29/20 A3001 RMK A01 T02910199  RH  058%=      5-min Rain = 0
KMC1 251849Z 14013KT 29/20 A3001 RMK A01 T02910198  RH  057%=      5-min Rain = 0
KMC1 251850Z 14014KT 29/20 A3001 RMK A01 T02910198  RH  057%=      5-min Rain = 0
KMC1 251851Z 15012G17KT 29/20 A3001 RMK A01 T02920201  RH  058%=      5-min Rain = 0
KMC1 251852Z 15013KT 29/20 A3001 RMK A01 T02930202  RH  058%=      5-min Rain = 0
KMC1 251853Z 16015G20KT 29/20 A3001 RMK A01 T02940199  RH  057%=      5-min Rain = 0
KMC1 251854Z 16015G24KT 29/20 A3001 RMK A01 T02920197  RH  057%=      5-min Rain = 0
KMC1 251855Z 17011G16KT 29/20 A3001 RMK A01 T02890198  RH  058%=      5-min Rain = 0
KMC1 251856Z 17014G19KT 29/20 A3001 RMK A01 T02880197  RH  058%=      5-min Rain = 0
KMC1 251857Z 16013KT 29/20 A3001 RMK A01 T02870197  RH  058%=      5-min Rain = 0
KMC1 251858Z 16008KT 29/20 A3001 RMK A01 T02860199  RH  059%=      5-min Rain = 0
KMC1 251859Z 15007KT 29/20 A3001 RMK A01 T02870201  RH  060%=      5-min Rain = 0
KMC1 251900Z 14009G14KT 29/20 A3001 RMK A01 T02890201  RH  059%=      5-min Rain = 0
KMC1 251901Z 13011G18KT 29/20 A3001 RMK A01 T02900197  RH  057%=      5-min Rain = 0
KMC1 251902Z 14012G22KT 29/20 A3001 RMK A01 T02910200  RH  058%=      5-min Rain = 0
KMC1 251903Z 14011G17KT 29/20 A3001 RMK A01 T02910199  RH  058%=      5-min Rain = 0
KMC1 251904Z 15008G13KT 29/20 A3001 RMK A01 T02910202  RH  059%=      5-min Rain = 0
KMC1 251905Z 16011G16KT 30/21 A3001 RMK A01 T02950205  RH  058%=      5-min Rain = 0
KMC1 251906Z 16014G19KT 30/20 A3001 RMK A01 T02990204  RH  056%=      5-min Rain = 0
KMC1 251907Z 16011G17KT 30/20 A3001 RMK A01 T03020202  RH  055%=      5-min Rain = 0
KMC1 251908Z 15011G18KT 30/20 A3001 RMK A01 T03010201  RH  055%=      5-min Rain = 0
KMC1 251909Z 16012G18KT 30/20 A3001 RMK A01 T02980201  RH  056%=      5-min Rain = 0
KMC1 251910Z 15013G20KT 30/20 A3001 RMK A01 T02950199  RH  056%=      5-min Rain = 0
KMC1 251911Z 15011G17KT 29/20 A3001 RMK A01 T02940200  RH  057%=      5-min Rain = 0
KMC1 251912Z 16014G20KT 29/20 A3001 RMK A01 T02920200  RH  058%=      5-min Rain = 0
KMC1 251913Z 15011G16KT 29/20 A3001 RMK A01 T02910200  RH  058%=      5-min Rain = 0
KMC1 251914Z 16012KT 29/20 A30 RMK A01 T02900201  RH  059%=      5-min Rain = 0
KMC1 251915Z 16011G16KT 29/20 A30 RMK A01 T02890201  RH  059%=      5-min Rain = 0
KMC1 251916Z 15010KT 29/20 A30 RMK A01 T02880200  RH  059%=      5-min Rain = 0
KMC1 251917Z 14009G16KT 29/20 A30 RMK A01 T02880201  RH  059%=      5-min Rain = 0
KMC1 251918Z 14011KT 29/20 A30 RMK A01 T02880200  RH  059%=      5-min Rain = 0
KMC1 251919Z 16007KT 29/20 A30 RMK A01 T02880204  RH  060%=      5-min Rain = 0
KMC1 251920Z 14006KT 29/21 A30 RMK A01 T02890205  RH  060%=      5-min Rain = 0
KMC1 251921Z 13008KT 29/20 A30 RMK A01 T02920204  RH  059%=      5-min Rain = 0
KMC1 251922Z 14009KT 29/21 A30 RMK A01 T02930205  RH  059%=      5-min Rain = 0
KMC1 251923Z 14010KT 29/21 A30 RMK A01 T02940205  RH  059%=      5-min Rain = 0
KMC1 251924Z 14009G14KT 30/21 A30 RMK A01 T02950205  RH  058%=      5-min Rain = 0
KMC1 251925Z 14013G18KT 30/20 A30 RMK A01 T02950203  RH  058%=      5-min Rain = 0
KMC1 251926Z 13011KT 30/20 A30 RMK A01 T02950202  RH  058%=      5-min Rain = 0
KMC1 251927Z 13010KT 30/20 A30 RMK A01 T02970203  RH  057%=      5-min Rain = 0
KMC1 251928Z 15008KT 30/21 A30 RMK A01 T02990207  RH  058%=      5-min Rain = 0
KMC1 251929Z 13014G20KT 30/21 A30 RMK A01 T03020205  RH  056%=      5-min Rain = 0
KMC1 251930Z 14010KT 30/21 A30 RMK A01 T03030206  RH  056%=      5-min Rain = 0
KMC1 251931Z 15015G20KT 31/21 A30 RMK A01 T03050207  RH  056%=      5-min Rain = 0
KMC1 251932Z 14014G20KT 30/20 A30 RMK A01 T03040202  RH  054%=      5-min Rain = 0
KMC1 251933Z 15011KT 30/20 A30 RMK A01 T03010200  RH  055%=      5-min Rain = 0
KMC1 251934Z 14010KT 30/20 A30 RMK A01 T02980201  RH  056%=      5-min Rain = 0
KMC1 251935Z 14012G18KT 30/20 A30 RMK A01 T02960201  RH  056%=      5-min Rain = 0
KMC1 251936Z 13014G21KT 29/20 A2999 RMK A01 T02940198  RH  056%=      5-min Rain = 0
KMC1 251937Z 15014G20KT 29/20 A2999 RMK A01 T02920198  RH  057%=      5-min Rain = 0
KMC1 251938Z 14014KT 29/20 A30 RMK A01 T02900197  RH  057%=      5-min Rain = 0
KMC1 251939Z 15010KT 29/20 A30 RMK A01 T02900198  RH  058%=      5-min Rain = 0
KMC1 251940Z 16011G19KT 29/20 A30 RMK A01 T02910200  RH  058%=      5-min Rain = 0
KMC1 251941Z 15012KT 29/20 A2999 RMK A01 T02930200  RH  057%=      5-min Rain = 0
KMC1 251942Z 15008G13KT 29/20 A2999 RMK A01 T02940201  RH  057%=      5-min Rain = 0
KMC1 251943Z 15009G16KT 30/20 A2999 RMK A01 T02960203  RH  058%=      5-min Rain = 0
KMC1 251944Z 15011KT 30/20 A2999 RMK A01 T02960201  RH  056%=      5-min Rain = 0
KMC1 251945Z 15009G15KT 30/20 A2999 RMK A01 T02960202  RH  057%=      5-min Rain = 0
KMC1 251946Z 13011G17KT 30/20 A2999 RMK A01 T02960203  RH  057%=      5-min Rain = 0
KMC1 251947Z 14011G16KT 30/20 A2999 RMK A01 T02970203  RH  057%=      5-min Rain = 0
KMC1 251948Z 14013G20KT 30/20 A2999 RMK A01 T02970201  RH  056%=      5-min Rain = 0
KMC1 251949Z 16011KT 30/20 A2999 RMK A01 T02960201  RH  057%=      5-min Rain = 0
KMC1 251950Z 14014KT 30/20 A2999 RMK A01 T02950199  RH  056%=      5-min Rain = 0
KMC1 251951Z 15013KT 29/20 A2999 RMK A01 T02940198  RH  056%=      5-min Rain = 0
KMC1 251952Z 16014KT 29/20 A2999 RMK A01 T02940197  RH  056%=      5-min Rain = 0
KMC1 251953Z 16011G20KT 29/20 A2999 RMK A01 T02930199  RH  057%=      5-min Rain = 0
KMC1 251954Z 15014G21KT 29/20 A2999 RMK A01 T02930198  RH  057%=      5-min Rain = 0
KMC1 251955Z 15014G19KT 29/20 A2998 RMK A01 T02920199  RH  057%=      5-min Rain = 0
KMC1 251956Z 15012KT 29/20 A2998 RMK A01 T02930199  RH  057%=      5-min Rain = 0
KMC1 251957Z 15012G20KT 30/20 A2998 RMK A01 T02960203  RH  058%=      5-min Rain = 0
KMC1 251958Z 14015KT 30/20 A2998 RMK A01 T02980202  RH  056%=      5-min Rain = 0
KMC1 251959Z 14016G22KT 30/20 A2998 RMK A01 T03000199  RH  055%=      5-min Rain = 0
KMC1 252000Z 15012G17KT 30/20 A2998 RMK A01 T02990200  RH  055%=      5-min Rain = 0
KMC1 252001Z 16014G20KT 30/20 A2998 RMK A01 T02990199  RH  055%=      5-min Rain = 0
KMC1 252002Z 16011KT 30/20 A2998 RMK A01 T02990201  RH  056%=      5-min Rain = 0
KMC1 252003Z 15014G19KT 30/20 A2998 RMK A01 T03000200  RH  055%=      5-min Rain = 0
KMC1 252004Z 15016KT 30/20 A2998 RMK A01 T03000196  RH  054%=      5-min Rain = 0
KMC1 252005Z 17013G18KT 30/20 A2998 RMK A01 T02970197  RH  055%=      5-min Rain = 0
KMC1 252006Z 16010G17KT 30/20 A2998 RMK A01 T02960197  RH  055%=      5-min Rain = 0
KMC1 252007Z 15017KT 30/20 A2998 RMK A01 T02950195  RH  055%=      5-min Rain = 0
KMC1 252008Z 15011G17KT 29/20 A2998 RMK A01 T02940195  RH  055%=      5-min Rain = 0
KMC1 252009Z 15010G16KT 30/20 A2998 RMK A01 T02950198  RH  056%=      5-min Rain = 0
KMC1 252010Z 16014G19KT 30/20 A2998 RMK A01 T02980197  RH  055%=      5-min Rain = 0
KMC1 252011Z 17015G20KT 30/20 A2998 RMK A01 T03000197  RH  054%=      5-min Rain = 0
KMC1 252012Z 17017KT 30/20 A2998 RMK A01 T03010197  RH  054%=      5-min Rain = 0
KMC1 252013Z 16016KT 30/20 A2998 RMK A01 T03000196  RH  053%=      5-min Rain = 0
KMC1 252014Z 17013KT 30/20 A2998 RMK A01 T03000196  RH  054%=      5-min Rain = 0
KMC1 252015Z 17013KT 30/20 A2997 RMK A01 T03000199  RH  054%=      5-min Rain = 0
KMC1 252016Z 17009G14KT 30/20 A2997 RMK A01 T03020197  RH  054%=      5-min Rain = 0
KMC1 252017Z 16015G21KT 30/20 A2997 RMK A01 T03030202  RH  055%=      5-min Rain = 0
KMC1 252018Z 16013KT 30/20 A2997 RMK A01 T03040199  RH  053%=      5-min Rain = 0
KMC1 252019Z 15013G18KT 31/20 A2997 RMK A01 T03050198  RH  053%=      5-min Rain = 0
KMC1 252020Z 14013G18KT 31/20 A2997 RMK A01 T03050201  RH  054%=      5-min Rain = 0
KMC1 252021Z 14015G20KT 31/20 A2997 RMK A01 T03050199  RH  053%=      5-min Rain = 0
KMC1 252022Z 14016G22KT 30/20 A2997 RMK A01 T03040200  RH  054%=      5-min Rain = 0
KMC1 252023Z 13017G23KT 30/20 A2997 RMK A01 T03040199  RH  054%=      5-min Rain = 0
KMC1 252024Z 14015G22KT 30/20 A2997 RMK A01 T03030200  RH  054%=      5-min Rain = 0
KMC1 252025Z 14019KT 30/20 A2997 RMK A01 T03030200  RH  054%=      5-min Rain = 0
KMC1 252026Z 14014G20KT 30/20 A2997 RMK A01 T03020200  RH  054%=      5-min Rain = 0
KMC1 252027Z 13014G20KT 30/20 A2997 RMK A01 T03010200  RH  055%=      5-min Rain = 0
KMC1 252028Z 14013G19KT 30/20 A2997 RMK A01 T03010201  RH  055%=      5-min Rain = 0
KMC1 252029Z 14013G19KT 30/20 A2997 RMK A01 T03020202  RH  055%=      5-min Rain = 0
KMC1 252030Z 14013G20KT 30/20 A2997 RMK A01 T03030202  RH  055%=      5-min Rain = 0
KMC1 252031Z 14012KT 30/20 A2997 RMK A01 T03030202  RH  055%=      5-min Rain = 0
KMC1 252032Z 16010KT 30/20 A2997 RMK A01 T03020203  RH  055%=      5-min Rain = 0
KMC1 252033Z 15010G15KT 30/20 A2997 RMK A01 T03010201  RH  055%=      5-min Rain = 0
KMC1 252034Z 15008G15KT 30/20 A2997 RMK A01 T02990201  RH  056%=      5-min Rain = 0
KMC1 252035Z 16013KT 30/20 A2997 RMK A01 T02980201  RH  056%=      5-min Rain = 0
KMC1 252036Z 13015G21KT 30/20 A2997 RMK A01 T02960201  RH  057%=      5-min Rain = 0
KMC1 252037Z 14014KT 29/20 A2997 RMK A01 T02940198  RH  056%=      5-min Rain = 0
KMC1 252038Z 14011G17KT 29/20 A2997 RMK A01 T02930199  RH  057%=      5-min Rain = 0
KMC1 252039Z 15014G19KT 29/20 A2997 RMK A01 T02930199  RH  057%=      5-min Rain = 0
KMC1 252040Z 14016G22KT 29/20 A2997 RMK A01 T02930197  RH  056%=      5-min Rain = 0
KMC1 252041Z 15016KT 29/20 A2997 RMK A01 T02930196  RH  056%=      5-min Rain = 0
KMC1 252042Z 14008G14KT 29/20 A2997 RMK A01 T02940201  RH  057%=      5-min Rain = 0
KMC1 252043Z 14011G17KT 30/20 A2997 RMK A01 T02980203  RH  057%=      5-min Rain = 0
KMC1 252044Z 14014G19KT 30/20 A2997 RMK A01 T03010202  RH  055%=      5-min Rain = 0
KMC1 252045Z 15008KT 30/20 A2997 RMK A01 T03020203  RH  055%=      5-min Rain = 0
KMC1 252046Z 15013G18KT 31/20 A2997 RMK A01 T03050204  RH  055%=      5-min Rain = 0
KMC1 252047Z 16012G20KT 31/20 A2997 RMK A01 T03060203  RH  054%=      5-min Rain = 0
KMC1 252048Z 16018G26KT 31/20 A2997 RMK A01 T03060198  RH  053%=      5-min Rain = 0
KMC1 252049Z 15013G21KT 31/20 A2997 RMK A01 T03050199  RH  053%=      5-min Rain = 0
KMC1 252050Z 16014KT 30/20 A2997 RMK A01 T03040199  RH  053%=      5-min Rain = 0
KMC1 252051Z 16010G17KT 30/20 A2997 RMK A01 T03030200  RH  054%=      5-min Rain = 0
KMC1 252052Z 15010KT 30/20 A2997 RMK A01 T03010202  RH  055%=      5-min Rain = 0
KMC1 252053Z 15014G20KT 30/20 A2997 RMK A01 T03000200  RH  055%=      5-min Rain = 0
KMC1 252054Z 15013G19KT 30/20 A2997 RMK A01 T02990197  RH  054%=      5-min Rain = 0
KMC1 252055Z 15016G23KT 30/20 A2997 RMK A01 T02990195  RH  054%=      5-min Rain = 0
KMC1 252056Z 18014KT 30/20 A2997 RMK A01 T02990196  RH  054%=      5-min Rain = 0
KMC1 252057Z 17012G18KT 30/20 A2997 RMK A01 T02980195  RH  054%=      5-min Rain = 0
KMC1 252058Z 16014KT 30/20 A2997 RMK A01 T02970195  RH  054%=      5-min Rain = 0
KMC1 252059Z 16012KT 30/20 A2997 RMK A01 T02960195  RH  055%=      5-min Rain = 0
KMC1 252100Z 16013G18KT 30/20 A2997 RMK A01 T02960197  RH  055%=      5-min Rain = 0
KMC1 252101Z 17014G19KT 30/20 A2997 RMK A01 T02980199  RH  055%=      5-min Rain = 0
KMC1 252102Z 16010KT 30/20 A2997 RMK A01 T02990201  RH  056%=      5-min Rain = 0
KMC1 252103Z 14012G18KT 30/20 A2997 RMK A01 T03010202  RH  055%=      5-min Rain = 0
KMC1 252104Z 14016G22KT 30/20 A2997 RMK A01 T03010198  RH  054%=      5-min Rain = 0
KMC1 252105Z 15013G20KT 30/20 A2997 RMK A01 T02990198  RH  054%=      5-min Rain = 0
KMC1 252106Z 14012G17KT 30/20 A2997 RMK A01 T02980198  RH  055%=      5-min Rain = 0
KMC1 252107Z 15010G17KT 30/20 A2997 RMK A01 T02970201  RH  056%=      5-min Rain = 0
KMC1 252108Z 16011G17KT 30/20 A2997 RMK A01 T02960202  RH  057%=      5-min Rain = 0
KMC1 252109Z 16012G17KT 30/20 A2997 RMK A01 T02960199  RH  056%=      5-min Rain = 0
KMC1 252110Z 15012KT 30/20 A2997 RMK A01 T02960200  RH  056%=      5-min Rain = 0
KMC1 252111Z 15013KT 30/20 A2997 RMK A01 T02950201  RH  057%=      5-min Rain = 0
KMC1 252112Z 15014KT 29/20 A2997 RMK A01 T02940196  RH  055%=      5-min Rain = 0
KMC1 252113Z 15012G19KT 29/19 A2997 RMK A01 T02940194  RH  055%=      5-min Rain = 0
KMC1 252114Z 15012G17KT 29/19 A2997 RMK A01 T02930194  RH  055%=      5-min Rain = 0
KMC1 252115Z 16009G16KT 29/20 A2997 RMK A01 T02920195  RH  056%=      5-min Rain = 0
KMC1 252116Z 15009KT 29/20 A2997 RMK A01 T02930196  RH  056%=      5-min Rain = 0
KMC1 252117Z 15008KT 29/20 A2997 RMK A01 T02930198  RH  056%=      5-min Rain = 0
KMC1 252118Z 16009KT 30/20 A2997 RMK A01 T02970202  RH  057%=      5-min Rain = 0
KMC1 252119Z 15009G14KT 30/20 A2997 RMK A01 T03010204  RH  056%=      5-min Rain = 0
KMC1 252120Z 15010G15KT 30/20 A2997 RMK A01 T03040201  RH  054%=      5-min Rain = 0
KMC1 252121Z 14008G13KT 30/20 A2997 RMK A01 T03040203  RH  055%=      5-min Rain = 0
KMC1 252122Z 14010G19KT 31/21 A2997 RMK A01 T03060206  RH  055%=      5-min Rain = 0
KMC1 252123Z 14013G22KT 31/20 A2996 RMK A01 T03080202  RH  053%=      5-min Rain = 0
KMC1 252124Z 14013G18KT 31/20 A2996 RMK A01 T03080203  RH  053%=      5-min Rain = 0
KMC1 252125Z 15008G15KT 31/20 A2996 RMK A01 T03070204  RH  054%=      5-min Rain = 0
KMC1 252126Z 14009KT 31/21 A2996 RMK A01 T03080205  RH  054%=      5-min Rain = 0
KMC1 252127Z 14009G14KT 31/21 A2996 RMK A01 T03090205  RH  054%=      5-min Rain = 0
KMC1 252128Z 13011G16KT 31/20 A2996 RMK A01 T03080204  RH  054%=      5-min Rain = 0
KMC1 252129Z 13007G12KT 31/21 A2996 RMK A01 T03060205  RH  055%=      5-min Rain = 0
KMC1 252130Z 13010KT 31/21 A2996 RMK A01 T03050205  RH  055%=      5-min Rain = 0
KMC1 252131Z 13014G22KT 30/20 A2996 RMK A01 T03030204  RH  055%=      5-min Rain = 0
KMC1 252132Z 14014G19KT 30/20 A2996 RMK A01 T03000199  RH  055%=      5-min Rain = 0
KMC1 252133Z 15011KT 30/20 A2996 RMK A01 T02970198  RH  055%=      5-min Rain = 0
KMC1 252134Z 14011G17KT 30/20 A2996 RMK A01 T02950198  RH  056%=      5-min Rain = 0
KMC1 252135Z 14014G21KT 29/20 A2996 RMK A01 T02940199  RH  057%=      5-min Rain = 0
KMC1 252136Z 13010KT 29/20 A2996 RMK A01 T02930199  RH  057%=      5-min Rain = 0
KMC1 252137Z 14012G19KT 29/20 A2996 RMK A01 T02920200  RH  058%=      5-min Rain = 0
KMC1 252138Z 14013G18KT 29/20 A2996 RMK A01 T02920199  RH  057%=      5-min Rain = 0
KMC1 252139Z 15010G15KT 29/20 A2996 RMK A01 T02910201  RH  058%=      5-min Rain = 0
KMC1 252140Z 15006KT 29/21 A2996 RMK A01 T02940206  RH  059%=      5-min Rain = 0
KMC1 252141Z 15011KT 30/20 A2996 RMK A01 T02990204  RH  057%=      5-min Rain = 0
KMC1 252142Z 15011G17KT 30/20 A2996 RMK A01 T03010202  RH  055%=      5-min Rain = 0
KMC1 252143Z 15012G17KT 30/20 A2996 RMK A01 T03020200  RH  055%=      5-min Rain = 0
KMC1 252144Z 15010G15KT 30/20 A2996 RMK A01 T03000201  RH  055%=      5-min Rain = 0
KMC1 252145Z 14010KT 30/20 A2996 RMK A01 T02980200  RH  056%=      5-min Rain = 0
KMC1 252146Z 14008G15KT 30/20 A2996 RMK A01 T02960201  RH  057%=      5-min Rain = 0
KMC1 252147Z 14010G15KT 30/20 A2996 RMK A01 T02950199  RH  056%=      5-min Rain = 0
KMC1 252148Z 14012G18KT 30/20 A2996 RMK A01 T02950199  RH  056%=      5-min Rain = 0
KMC1 252149Z 14013G20KT 30/20 A2996 RMK A01 T02970198  RH  055%=      5-min Rain = 0
KMC1 252150Z 14015G20KT 30/20 A2996 RMK A01 T02990198  RH  055%=      5-min Rain = 0
KMC1 252151Z 15013KT 30/20 A2996 RMK A01 T03000197  RH  054%=      5-min Rain = 0
KMC1 252152Z 14016G24KT 30/20 A2996 RMK A01 T03000198  RH  054%=      5-min Rain = 0
KMC1 252153Z 14014G20KT 30/20 A2996 RMK A01 T03010198  RH  054%=      5-min Rain = 0
KMC1 252154Z 14016G22KT 30/20 A2996 RMK A01 T03010198  RH  054%=      5-min Rain = 0
KMC1 252155Z 14013KT 30/20 A2996 RMK A01 T03010198  RH  054%=      5-min Rain = 0
KMC1 252156Z 13014KT 30/20 A2996 RMK A01 T03010199  RH  054%=      5-min Rain = 0
KMC1 252157Z 14014G21KT 30/20 A2996 RMK A01 T03010198  RH  054%=      5-min Rain = 0
KMC1 252158Z 14012KT 30/20 A2996 RMK A01 T03010201  RH  055%=      5-min Rain = 0
KMC1 252159Z 16016G21KT 30/20 A2996 RMK A01 T03020197  RH  053%=      5-min Rain = 0
KMC1 252200Z 16013G20KT 30/19 A2996 RMK A01 T03020194  RH  053%=      5-min Rain = 0
KMC1 252201Z 16012G17KT 30/20 A2996 RMK A01 T03020197  RH  054%=      5-min Rain = 0
KMC1 252202Z 16014G21KT 30/19 A2996 RMK A01 T03030194  RH  052%=      5-min Rain = 0
KMC1 252203Z 15014G21KT 30/20 A2996 RMK A01 T03030195  RH  052%=      5-min Rain = 0
KMC1 252204Z 15011KT 30/20 A2996 RMK A01 T03030195  RH  053%=      5-min Rain = 0
KMC1 252205Z 14013G20KT 30/20 A2996 RMK A01 T03030196  RH  053%=      5-min Rain = 0
KMC1 252206Z 14015G21KT 30/19 A2996 RMK A01 T03030194  RH  052%=      5-min Rain = 0
KMC1 252207Z 13017G22KT 30/19 A2996 RMK A01 T03030191  RH  051%=      5-min Rain = 0
KMC1 252208Z 14014G20KT 30/19 A2996 RMK A01 T03030192  RH  052%=      5-min Rain = 0
KMC1 252209Z 16012G18KT 30/19 A2996 RMK A01 T03030193  RH  052%=      5-min Rain = 0
KMC1 252210Z 14011KT 30/19 A2996 RMK A01 T03030193  RH  052%=      5-min Rain = 0
KMC1 252211Z 15010KT 30/19 A2996 RMK A01 T03040194  RH  052%=      5-min Rain = 0
KMC1 252212Z 14012G17KT 31/20 A2996 RMK A01 T03050195  RH  052%=      5-min Rain = 0
KMC1 252213Z 14012KT 31/20 A2996 RMK A01 T03050195  RH  052%=      5-min Rain = 0
KMC1 252214Z 14009KT 31/20 A2996 RMK A01 T03060199  RH  053%=      5-min Rain = 0
KMC1 252215Z 15013G21KT 31/20 A2996 RMK A01 T03070199  RH  052%=      5-min Rain = 0
KMC1 252216Z 13015KT 31/20 A2995 RMK A01 T03080197  RH  052%=      5-min Rain = 0
KMC1 252217Z 13015G20KT 31/20 A2995 RMK A01 T03080196  RH  051%=      5-min Rain = 0
KMC1 252218Z 14011G17KT 31/20 A2995 RMK A01 T03080197  RH  052%=      5-min Rain = 0
KMC1 252219Z 13013G19KT 31/20 A2995 RMK A01 T03080200  RH  053%=      5-min Rain = 0
KMC1 252220Z 14012G18KT 31/20 A2995 RMK A01 T03070197  RH  052%=      5-min Rain = 0
KMC1 252221Z 12013G20KT 31/20 A2995 RMK A01 T03060197  RH  052%=      5-min Rain = 0
KMC1 252222Z 14014G21KT 31/20 A2995 RMK A01 T03050196  RH  052%=      5-min Rain = 0
KMC1 252223Z 13013KT 30/20 A2995 RMK A01 T03040197  RH  053%=      5-min Rain = 0
KMC1 252224Z 12014KT 30/19 A2995 RMK A01 T03040194  RH  052%=      5-min Rain = 0
KMC1 252225Z 13012G18KT 30/20 A2995 RMK A01 T03030196  RH  053%=      5-min Rain = 0
KMC1 252226Z 14011G17KT 30/20 A2995 RMK A01 T03030196  RH  053%=      5-min Rain = 0
KMC1 252227Z 12016G21KT 30/20 A2995 RMK A01 T03040195  RH  052%=      5-min Rain = 0
KMC1 252228Z 13013KT 30/19 A2995 RMK A01 T03040194  RH  052%=      5-min Rain = 0
KMC1 252229Z 13014G19KT 30/20 A2995 RMK A01 T03030196  RH  053%=      5-min Rain = 0
KMC1 252230Z 13015KT 30/19 A2995 RMK A01 T03030194  RH  052%=      5-min Rain = 0
KMC1 252231Z 14015KT 30/20 A2995 RMK A01 T03020195  RH  053%=      5-min Rain = 0
KMC1 252232Z 13014G20KT 30/20 A2995 RMK A01 T03020195  RH  053%=      5-min Rain = 0
KMC1 252233Z 13011KT 30/20 A2995 RMK A01 T03020196  RH  053%=      5-min Rain = 0
KMC1 252234Z 14009G16KT 30/20 A2995 RMK A01 T03020197  RH  053%=      5-min Rain = 0
KMC1 252235Z 14017G25KT 30/20 A2995 RMK A01 T03020195  RH  053%=      5-min Rain = 0
KMC1 252236Z 15014G19KT 30/19 A2995 RMK A01 T03010192  RH  052%=      5-min Rain = 0
KMC1 252237Z 15013KT 30/19 A2995 RMK A01 T03000194  RH  053%=      5-min Rain = 0
KMC1 252238Z 14014G19KT 30/19 A2995 RMK A01 T03000192  RH  052%=      5-min Rain = 0
KMC1 252239Z 14011G17KT 30/19 A2995 RMK A01 T02970191  RH  053%=      5-min Rain = 0
KMC1 252240Z 15010KT 30/19 A2995 RMK A01 T02960192  RH  054%=      5-min Rain = 0
KMC1 252241Z 15010G17KT 29/19 A2995 RMK A01 T02940191  RH  054%=      5-min Rain = 0
KMC1 252242Z 15010G15KT 29/19 A2995 RMK A01 T02930191  RH  054%=      5-min Rain = 0
KMC1 252243Z 15009KT 29/19 A2995 RMK A01 T02920190  RH  054%=      5-min Rain = 0
KMC1 252244Z 14010G15KT 29/19 A2995 RMK A01 T02920192  RH  055%=      5-min Rain = 0
KMC1 252245Z 14008KT 29/19 A2996 RMK A01 T02930193  RH  055%=      5-min Rain = 0
KMC1 252246Z 14006KT 30/20 A2996 RMK A01 T02950195  RH  055%=      5-min Rain = 0
KMC1 252247Z 15009KT 30/20 A2996 RMK A01 T02980195  RH  054%=      5-min Rain = 0
KMC1 252248Z 15010G17KT 30/20 A2995 RMK A01 T03000195  RH  053%=      5-min Rain = 0
KMC1 252249Z 15013G19KT 30/19 A2995 RMK A01 T03010193  RH  052%=      5-min Rain = 0
KMC1 252250Z 15014KT 30/19 A2995 RMK A01 T03000190  RH  052%=      5-min Rain = 0
KMC1 252251Z 15009KT 30/19 A2995 RMK A01 T02970191  RH  053%=      5-min Rain = 0
KMC1 252252Z 14010KT 30/19 A2995 RMK A01 T02950192  RH  054%=      5-min Rain = 0
KMC1 252253Z 14012KT 30/19 A2995 RMK A01 T02950192  RH  054%=      5-min Rain = 0
KMC1 252254Z 15011G18KT 30/19 A2995 RMK A01 T02960192  RH  054%=      5-min Rain = 0
KMC1 252255Z 14011G17KT 30/19 A2995 RMK A01 T02970190  RH  053%=      5-min Rain = 0
KMC1 252256Z 15011G17KT 30/19 A2995 RMK A01 T02980191  RH  053%=      5-min Rain = 0
KMC1 252257Z 14015KT 30/19 A2995 RMK A01 T02990189  RH  052%=      5-min Rain = 0
KMC1 252258Z 14013G18KT 30/19 A2995 RMK A01 T02980188  RH  052%=      5-min Rain = 0
KMC1 252259Z 14011G17KT 30/19 A2995 RMK A01 T02970187  RH  052%=      5-min Rain = 0
KMC1 252300Z 15013G18KT 30/19 A2995 RMK A01 T02960186  RH  052%=      5-min Rain = 0
KMC1 252301Z 14013KT 30/19 A2995 RMK A01 T02960185  RH  051%=      5-min Rain = 0
KMC1 252302Z 15013G18KT 30/19 A2995 RMK A01 T02970186  RH  051%=      5-min Rain = 0
KMC1 252303Z 15014G22KT 30/19 A2995 RMK A01 T02970187  RH  052%=      5-min Rain = 0
KMC1 252304Z 14012G19KT 30/19 A2995 RMK A01 T02970188  RH  052%=      5-min Rain = 0
KMC1 252305Z 14016G21KT 30/19 A2995 RMK A01 T02980187  RH  051%=      5-min Rain = 0
KMC1 252306Z 14014KT 30/19 A2995 RMK A01 T02980187  RH  051%=      5-min Rain = 0
KMC1 252307Z 14011G16KT 30/19 A2995 RMK A01 T02970187  RH  051%=      5-min Rain = 0
KMC1 252308Z 13012G19KT 30/19 A2995 RMK A01 T02970188  RH  052%=      5-min Rain = 0
KMC1 252309Z 14017KT 30/19 A2995 RMK A01 T02960186  RH  052%=      5-min Rain = 0
KMC1 252310Z 14015G20KT 30/19 A2995 RMK A01 T02950186  RH  052%=      5-min Rain = 0
KMC1 252311Z 15008KT 29/19 A2995 RMK A01 T02940187  RH  053%=      5-min Rain = 0
KMC1 252312Z 16011G18KT 29/19 A2995 RMK A01 T02940190  RH  053%=      5-min Rain = 0
KMC1 252313Z 15012G18KT 29/19 A2995 RMK A01 T02940188  RH  053%=      5-min Rain = 0
KMC1 252314Z 15011KT 29/19 A2994 RMK A01 T02940188  RH  053%=      5-min Rain = 0
KMC1 252315Z 15011G17KT 29/19 A2995 RMK A01 T02930190  RH  054%=      5-min Rain = 0
KMC1 252316Z 16012G18KT 29/19 A2995 RMK A01 T02930190  RH  054%=      5-min Rain = 0
KMC1 252317Z 16013G20KT 29/19 A2995 RMK A01 T02920190  RH  054%=      5-min Rain = 0
KMC1 252318Z 15011KT 29/19 A2995 RMK A01 T02930191  RH  054%=      5-min Rain = 0
KMC1 252319Z 16009KT 29/19 A2995 RMK A01 T02920192  RH  055%=      5-min Rain = 0
KMC1 252320Z 16007KT 29/19 A2995 RMK A01 T02920193  RH  055%=      5-min Rain = 0
KMC1 252321Z 16012G18KT 29/19 A2995 RMK A01 T02930193  RH  055%=      5-min Rain = 0
KMC1 252322Z 15011G16KT 29/19 A2995 RMK A01 T02930189  RH  053%=      5-min Rain = 0
KMC1 252323Z 16014G20KT 29/19 A2995 RMK A01 T02920187  RH  053%=      5-min Rain = 0
KMC1 252324Z 15012G18KT 29/19 A2995 RMK A01 T02920185  RH  052%=      5-min Rain = 0
KMC1 252325Z 15011G16KT 29/19 A2995 RMK A01 T02920186  RH  053%=      5-min Rain = 0
KMC1 252326Z 14010G16KT 29/19 A2996 RMK A01 T02910187  RH  053%=      5-min Rain = 0
KMC1 252327Z 16009G14KT 29/19 A2996 RMK A01 T02910187  RH  053%=      5-min Rain = 0
KMC1 252328Z 14006KT 29/19 A2996 RMK A01 T02900187  RH  054%=      5-min Rain = 0
KMC1 252329Z 14009KT 29/19 A2996 RMK A01 T02900188  RH  054%=      5-min Rain = 0
KMC1 252330Z 13010G15KT 29/19 A2996 RMK A01 T02900187  RH  054%=      5-min Rain = 0
KMC1 252331Z 14009G14KT 29/19 A2996 RMK A01 T02890186  RH  053%=      5-min Rain = 0
KMC1 252332Z 14009G18KT 29/19 A2996 RMK A01 T02890187  RH  054%=      5-min Rain = 0
KMC1 252333Z 14010G16KT 29/19 A2996 RMK A01 T02890186  RH  054%=      5-min Rain = 0
KMC1 252334Z 13012KT 29/19 A2996 RMK A01 T02890186  RH  054%=      5-min Rain = 0
KMC1 252335Z 13012KT 29/19 A2996 RMK A01 T02890186  RH  054%=      5-min Rain = 0
KMC1 252336Z 13009G14KT 29/19 A2996 RMK A01 T02900188  RH  054%=      5-min Rain = 0
KMC1 252337Z 14010G16KT 29/19 A2996 RMK A01 T02890189  RH  055%=      5-min Rain = 0
KMC1 252338Z 15012G17KT 29/19 A2996 RMK A01 T02900185  RH  053%=      5-min Rain = 0
KMC1 252339Z 13012G18KT 29/19 A2996 RMK A01 T02900186  RH  053%=      5-min Rain = 0
KMC1 252340Z 13012G19KT 29/18 A2996 RMK A01 T02900183  RH  053%=      5-min Rain = 0
KMC1 252341Z 13010G16KT 29/19 A2996 RMK A01 T02900185  RH  053%=      5-min Rain = 0
KMC1 252342Z 13012G17KT 29/18 A2996 RMK A01 T02890184  RH  053%=      5-min Rain = 0
KMC1 252343Z 14012G17KT 29/18 A2996 RMK A01 T02890184  RH  053%=      5-min Rain = 0
KMC1 252344Z 13010G17KT 29/18 A2996 RMK A01 T02880184  RH  053%=      5-min Rain = 0
KMC1 252345Z 14014G19KT 29/18 A2996 RMK A01 T02880184  RH  054%=      5-min Rain = 0
KMC1 252346Z 14011G17KT 29/18 A2996 RMK A01 T02870183  RH  053%=      5-min Rain = 0
KMC1 252347Z 14012G17KT 29/18 A2996 RMK A01 T02870182  RH  053%=      5-min Rain = 0
KMC1 252348Z 13010KT 29/18 A2996 RMK A01 T02870183  RH  053%=      5-min Rain = 0
KMC1 252349Z 14009KT 29/18 A2996 RMK A01 T02870184  RH  054%=      5-min Rain = 0
KMC1 252350Z 14008KT 29/19 A2996 RMK A01 T02870185  RH  054%=      5-min Rain = 0
KMC1 252351Z 14009KT 29/19 A2996 RMK A01 T02870185  RH  054%=      5-min Rain = 0
KMC1 252352Z 14007G12KT 29/19 A2996 RMK A01 T02870186  RH  054%=      5-min Rain = 0
KMC1 252353Z 15009KT 29/19 A2996 RMK A01 T02880187  RH  055%=      5-min Rain = 0
KMC1 252354Z 14008KT 29/19 A2996 RMK A01 T02870187  RH  055%=      5-min Rain = 0
KMC1 252355Z 13008KT 29/19 A2996 RMK A01 T02860186  RH  054%=      5-min Rain = 0
KMC1 252356Z 14008KT 29/19 A2996 RMK A01 T02860187  RH  055%=      5-min Rain = 0
KMC1 252357Z 14009KT 29/19 A2996 RMK A01 T02860186  RH  055%=      5-min Rain = 0
KMC1 252358Z 15009KT 29/18 A2996 RMK A01 T02860184  RH  054%=      5-min Rain = 0
KMC1 252359Z 16010KT 29/18 A2996 RMK A01 T02860184  RH  054%=      5-min Rain = 0
KMC1 260000Z 15008KT 29/18 A2996 RMK A01 T02860184  RH  054%=      5-min Rain = 0
KMC1 260001Z 16008G14KT 29/18 A2996 RMK A01 T02860184  RH  054%=      5-min Rain = 0
KMC1 260002Z 15007KT 29/19 A2996 RMK A01 T02860185  RH  054%=      5-min Rain = 0
KMC1 260003Z 15009KT 29/19 A2996 RMK A01 T02850186  RH  055%=      5-min Rain = 0
KMC1 260004Z 15008KT 29/19 A2996 RMK A01 T02850185  RH  055%=      5-min Rain = 0
KMC1 260005Z 15010KT 28/19 A2996 RMK A01 T02840185  RH  055%=      5-min Rain = 0
KMC1 260006Z 15011KT 28/18 A2996 RMK A01 T02840183  RH  054%=      5-min Rain = 0
KMC1 260007Z 15009KT 28/18 A2996 RMK A01 T02840182  RH  054%=      5-min Rain = 0
KMC1 260008Z 15009KT 28/18 A2996 RMK A01 T02840183  RH  054%=      5-min Rain = 0
KMC1 260009Z 16010KT 28/18 A2996 RMK A01 T02840184  RH  055%=      5-min Rain = 0
KMC1 260010Z 16011G18KT 28/18 A2996 RMK A01 T02840183  RH  054%=      5-min Rain = 0
KMC1 260011Z 14010G16KT 28/18 A2996 RMK A01 T02840183  RH  054%=      5-min Rain = 0
KMC1 260012Z 15010G15KT 28/18 A2996 RMK A01 T02840184  RH  054%=      5-min Rain = 0
KMC1 260013Z 15010KT 28/18 A2996 RMK A01 T02840183  RH  054%=      5-min Rain = 0
KMC1 260014Z 15009KT 28/18 A2996 RMK A01 T02840184  RH  055%=      5-min Rain = 0
KMC1 260015Z 15010G19KT 28/18 A2996 RMK A01 T02840184  RH  055%=      5-min Rain = 0
KMC1 260016Z 14012G18KT 28/18 A2996 RMK A01 T02830183  RH  055%=      5-min Rain = 0
KMC1 260017Z 15011KT 28/18 A2996 RMK A01 T02830182  RH  054%=      5-min Rain = 0
KMC1 260018Z 15012G17KT 28/18 A2996 RMK A01 T02830181  RH  054%=      5-min Rain = 0
KMC1 260019Z 15014G20KT 28/18 A2996 RMK A01 T02830180  RH  054%=      5-min Rain = 0
KMC1 260020Z 13010KT 28/18 A2996 RMK A01 T02830181  RH  054%=      5-min Rain = 0
KMC1 260021Z 13011KT 28/18 A2996 RMK A01 T02820181  RH  054%=      5-min Rain = 0
KMC1 260022Z 14009G14KT 28/18 A2996 RMK A01 T02810181  RH  054%=      5-min Rain = 0
KMC1 260023Z 15009KT 28/18 A2995 RMK A01 T02810181  RH  055%=      5-min Rain = 0
KMC1 260024Z 15008KT 28/18 A2995 RMK A01 T02800180  RH  055%=      5-min Rain = 0
KMC1 260025Z 14009G17KT 28/18 A2995 RMK A01 T02800180  RH  055%=      5-min Rain = 0
KMC1 260026Z 14014KT 28/18 A2995 RMK A01 T02790178  RH  054%=      5-min Rain = 0
KMC1 260027Z 15012G18KT 28/18 A2995 RMK A01 T02790178  RH  054%=      5-min Rain = 0
KMC1 260028Z 14009G14KT 28/18 A2995 RMK A01 T02790178  RH  054%=      5-min Rain = 0
KMC1 260029Z 15011G17KT 28/18 A2995 RMK A01 T02800179  RH  054%=      5-min Rain = 0
KMC1 260030Z 15009G14KT 28/18 A2995 RMK A01 T02800179  RH  054%=      5-min Rain = 0
KMC1 260031Z 15011G16KT 28/18 A2995 RMK A01 T02800179  RH  054%=      5-min Rain = 0
KMC1 260032Z 15010KT 28/18 A2996 RMK A01 T02800179  RH  054%=      5-min Rain = 0
KMC1 260033Z 15010KT 28/18 A2996 RMK A01 T02800179  RH  054%=      5-min Rain = 0
KMC1 260034Z 15007KT 28/18 A2996 RMK A01 T02800180  RH  054%=      5-min Rain = 0
KMC1 260035Z 15009G14KT 28/18 A2996 RMK A01 T02800181  RH  055%=      5-min Rain = 0
KMC1 260036Z 14008G14KT 28/18 A2996 RMK A01 T02800181  RH  055%=      5-min Rain = 0
KMC1 260037Z 15009KT 28/18 A2996 RMK A01 T02800181  RH  055%=      5-min Rain = 0
KMC1 260038Z 16006KT 28/18 A2996 RMK A01 T02790182  RH  055%=      5-min Rain = 0
KMC1 260039Z 15008KT 28/18 A2996 RMK A01 T02790182  RH  056%=      5-min Rain = 0
KMC1 260040Z 14010KT 28/18 A2996 RMK A01 T02790182  RH  056%=      5-min Rain = 0
KMC1 260041Z 14007G13KT 28/18 A2996 RMK A01 T02790182  RH  056%=      5-min Rain = 0
KMC1 260042Z 15008G13KT 28/18 A2997 RMK A01 T02790182  RH  056%=      5-min Rain = 0
KMC1 260043Z 13010G16KT 28/18 A2997 RMK A01 T02790182  RH  056%=      5-min Rain = 0
KMC1 260044Z 15007KT 28/18 A2997 RMK A01 T02780182  RH  056%=      5-min Rain = 0
KMC1 260045Z 15009KT 28/18 A2997 RMK A01 T02780182  RH  056%=      5-min Rain = 0
KMC1 260046Z 15011KT 28/18 A2997 RMK A01 T02780182  RH  056%=      5-min Rain = 0
KMC1 260047Z 15010G15KT 28/18 A2997 RMK A01 T02780182  RH  056%=      5-min Rain = 0
KMC1 260048Z 14007KT 28/18 A2997 RMK A01 T02780182  RH  056%=      5-min Rain = 0
KMC1 260049Z 15009G17KT 28/18 A2997 RMK A01 T02770182  RH  056%=      5-min Rain = 0
KMC1 260050Z 15008G16KT 28/18 A2997 RMK A01 T02760181  RH  056%=      5-min Rain = 0
KMC1 260051Z 15007G12KT 28/18 A2997 RMK A01 T02760182  RH  056%=      5-min Rain = 0
KMC1 260052Z 15010G16KT 28/18 A2997 RMK A01 T02760182  RH  056%=      5-min Rain = 0
KMC1 260053Z 15009KT 28/18 A2997 RMK A01 T02750181  RH  056%=      5-min Rain = 0
KMC1 260054Z 15007KT 28/18 A2997 RMK A01 T02750182  RH  057%=      5-min Rain = 0
KMC1 260055Z 15007KT 28/18 A2997 RMK A01 T02750182  RH  057%=      5-min Rain = 0
KMC1 260056Z 16010KT 27/18 A2997 RMK A01 T02740182  RH  057%=      5-min Rain = 0
KMC1 260057Z 15007KT 27/18 A2996 RMK A01 T02740182  RH  057%=      5-min Rain = 0
KMC1 260058Z 14008G14KT 27/18 A2996 RMK A01 T02740182  RH  057%=      5-min Rain = 0
KMC1 260059Z 15008KT 27/18 A2996 RMK A01 T02730182  RH  057%=      5-min Rain = 0
KMC1 260100Z 14009KT 27/18 A2996 RMK A01 T02730181  RH  057%=      5-min Rain = 0
KMC1 260101Z 15010G15KT 27/18 A2997 RMK A01 T02730181  RH  057%=      5-min Rain = 0
KMC1 260102Z 15007KT 27/18 A2997 RMK A01 T02730181  RH  057%=      5-min Rain = 0
KMC1 260103Z 14008KT 27/18 A2997 RMK A01 T02740182  RH  057%=      5-min Rain = 0
KMC1 260104Z 16010G16KT 27/18 A2997 RMK A01 T02730182  RH  058%=      5-min Rain = 0
KMC1 260105Z 15008G14KT 27/18 A2997 RMK A01 T02730182  RH  058%=      5-min Rain = 0
KMC1 260106Z 15007G12KT 27/18 A2997 RMK A01 T02730183  RH  058%=      5-min Rain = 0
KMC1 260107Z 15006KT 27/18 A2997 RMK A01 T02720183  RH  058%=      5-min Rain = 0
KMC1 260108Z 14006KT 27/18 A2997 RMK A01 T02720183  RH  058%=      5-min Rain = 0
KMC1 260109Z 14006KT 27/18 A2997 RMK A01 T02720183  RH  058%=      5-min Rain = 0
KMC1 260110Z 14007KT 27/18 A2997 RMK A01 T02710183  RH  059%=      5-min Rain = 0
KMC1 260111Z 14006KT 27/18 A2997 RMK A01 T02710183  RH  059%=      5-min Rain = 0
KMC1 260112Z 14006KT 27/18 A2997 RMK A01 T02700183  RH  059%=      5-min Rain = 0
KMC1 260113Z 13007KT 27/18 A2997 RMK A01 T02700183  RH  059%=      5-min Rain = 0
KMC1 260114Z 14007KT 27/18 A2997 RMK A01 T02700183  RH  059%=      5-min Rain = 0
KMC1 260115Z 13007KT 27/18 A2997 RMK A01 T02700183  RH  059%=      5-min Rain = 0
KMC1 260116Z 14007KT 27/18 A2997 RMK A01 T02690183  RH  059%=      5-min Rain = 0
KMC1 260117Z 14008KT 27/18 A2997 RMK A01 T02690182  RH  059%=      5-min Rain = 0
KMC1 260118Z 14004KT 27/18 A2998 RMK A01 T02690182  RH  059%=      5-min Rain = 0
KMC1 260119Z 14005KT 27/18 A2998 RMK A01 T02690183  RH  059%=      5-min Rain = 0
KMC1 260120Z 13009G15KT 27/18 A2998 RMK A01 T02690182  RH  059%=      5-min Rain = 0
KMC1 260121Z 14006KT 27/18 A2998 RMK A01 T02690182  RH  059%=      5-min Rain = 0
KMC1 260122Z 14008KT 27/18 A2998 RMK A01 T02700182  RH  059%=      5-min Rain = 0
KMC1 260123Z 14008KT 27/18 A2998 RMK A01 T02690182  RH  059%=      5-min Rain = 0
KMC1 260124Z 14007KT 27/18 A2998 RMK A01 T02700183  RH  059%=      5-min Rain = 0
KMC1 260125Z 14009KT 27/18 A2998 RMK A01 T02700183  RH  059%=      5-min Rain = 0
KMC1 260126Z 13007KT 27/18 A2998 RMK A01 T02690182  RH  059%=      5-min Rain = 0
KMC1 260127Z 14007KT 27/18 A2998 RMK A01 T02700183  RH  059%=      5-min Rain = 0
KMC1 260128Z 14006KT 27/18 A2998 RMK A01 T02690183  RH  059%=      5-min Rain = 0
KMC1 260129Z 13007KT 27/18 A2998 RMK A01 T02680183  RH  059%=      5-min Rain = 0
KMC1 260130Z 13007KT 27/18 A2998 RMK A01 T02680182  RH  059%=      5-min Rain = 0
KMC1 260131Z 14005KT 27/18 A2998 RMK A01 T02680183  RH  059%=      5-min Rain = 0
KMC1 260132Z 13006KT 27/18 A2998 RMK A01 T02680183  RH  060%=      5-min Rain = 0
KMC1 260133Z 13007KT 27/18 A2997 RMK A01 T02670183  RH  060%=      5-min Rain = 0
KMC1 260134Z 13007KT 27/18 A2997 RMK A01 T02660182  RH  060%=      5-min Rain = 0
KMC1 260135Z 14009KT 27/18 A2997 RMK A01 T02660183  RH  060%=      5-min Rain = 0
KMC1 260136Z 13008KT 27/18 A2997 RMK A01 T02660182  RH  060%=      5-min Rain = 0
KMC1 260137Z 14007KT 27/18 A2997 RMK A01 T02660183  RH  060%=      5-min Rain = 0
KMC1 260138Z 13006KT 27/18 A2997 RMK A01 T02650183  RH  060%=      5-min Rain = 0
KMC1 260139Z 13008KT 27/18 A2997 RMK A01 T02650183  RH  061%=      5-min Rain = 0
KMC1 260140Z 14006KT 27/18 A2997 RMK A01 T02650183  RH  061%=      5-min Rain = 0
KMC1 260141Z 13005KT 26/18 A2997 RMK A01 T02640183  RH  061%=      5-min Rain = 0
KMC1 260142Z 13005KT 26/18 A2997 RMK A01 T02630183  RH  061%=      5-min Rain = 0
KMC1 260143Z 14006KT 26/18 A2997 RMK A01 T02630183  RH  062%=      5-min Rain = 0
KMC1 260144Z 14006KT 26/18 A2997 RMK A01 T02620183  RH  062%=      5-min Rain = 0
KMC1 260145Z 14006KT 26/18 A2997 RMK A01 T02610183  RH  062%=      5-min Rain = 0
KMC1 260146Z 14006KT 26/18 A2997 RMK A01 T02610183  RH  062%=      5-min Rain = 0
KMC1 260147Z 14005KT 26/18 A2997 RMK A01 T02610183  RH  062%=      5-min Rain = 0
KMC1 260148Z 14005KT 26/18 A2997 RMK A01 T02600184  RH  063%=      5-min Rain = 0
KMC1 260149Z 14006KT 26/18 A2997 RMK A01 T02600184  RH  063%=      5-min Rain = 0
KMC1 260150Z 13005KT 26/18 A2997 RMK A01 T02590184  RH  063%=      5-min Rain = 0
KMC1 260151Z 13005KT 26/18 A2997 RMK A01 T02590184  RH  063%=      5-min Rain = 0
KMC1 260152Z 14005KT 26/18 A2997 RMK A01 T02580184  RH  064%=      5-min Rain = 0
KMC1 260153Z 13006KT 26/18 A2997 RMK A01 T02580184  RH  064%=      5-min Rain = 0
KMC1 260154Z 14005KT 26/18 A2997 RMK A01 T02570184  RH  064%=      5-min Rain = 0
KMC1 260155Z 13006KT 26/19 A2997 RMK A01 T02570185  RH  064%=      5-min Rain = 0
KMC1 260156Z 14005KT 26/19 A2997 RMK A01 T02570185  RH  064%=      5-min Rain = 0
KMC1 260157Z 13006KT 26/19 A2997 RMK A01 T02570185  RH  064%=      5-min Rain = 0
KMC1 260158Z 13007KT 26/19 A2997 RMK A01 T02570185  RH  065%=      5-min Rain = 0
KMC1 260159Z 13006KT 26/19 A2997 RMK A01 T02570185  RH  065%=      5-min Rain = 0
KMC1 260200Z 13007KT 26/19 A2997 RMK A01 T02570185  RH  065%=      5-min Rain = 0
KMC1 260201Z 12009KT 26/19 A2997 RMK A01 T02570185  RH  065%=      5-min Rain = 0
KMC1 260202Z 13007KT 26/19 A2997 RMK A01 T02570185  RH  065%=      5-min Rain = 0
KMC1 260203Z 13007KT 26/19 A2997 RMK A01 T02580186  RH  065%=      5-min Rain = 0
KMC1 260204Z 13007KT 26/19 A2997 RMK A01 T02570186  RH  065%=      5-min Rain = 0
KMC1 260205Z 14006KT 26/19 A2997 RMK A01 T02580187  RH  065%=      5-min Rain = 0
KMC1 260206Z 13007KT 26/19 A2997 RMK A01 T02570187  RH  065%=      5-min Rain = 0
KMC1 260207Z 13007KT 26/19 A2997 RMK A01 T02570187  RH  065%=      5-min Rain = 0
KMC1 260208Z 13007KT 26/19 A2997 RMK A01 T02570186  RH  065%=      5-min Rain = 0
KMC1 260209Z 13007KT 26/19 A2997 RMK A01 T02570187  RH  065%=      5-min Rain = 0
KMC1 260210Z 13008KT 26/19 A2997 RMK A01 T02570187  RH  065%=      5-min Rain = 0
KMC1 260211Z 14007KT 26/19 A2997 RMK A01 T02580187  RH  065%=      5-min Rain = 0
KMC1 260212Z 13006KT 26/19 A2997 RMK A01 T02580187  RH  065%=      5-min Rain = 0
KMC1 260213Z 12006KT 26/19 A2998 RMK A01 T02580187  RH  065%=      5-min Rain = 0
KMC1 260214Z 13005KT 26/19 A2998 RMK A01 T02580188  RH  065%=      5-min Rain = 0
KMC1 260215Z 13008KT 26/19 A2998 RMK A01 T02580188  RH  065%=      5-min Rain = 0
KMC1 260216Z 13007KT 26/19 A2998 RMK A01 T02580188  RH  065%=      5-min Rain = 0
KMC1 260217Z 13005KT 26/19 A2998 RMK A01 T02580188  RH  065%=      5-min Rain = 0
KMC1 260218Z 13005KT 26/19 A2998 RMK A01 T02580189  RH  065%=      5-min Rain = 0
KMC1 260219Z 12007KT 26/19 A2998 RMK A01 T02580188  RH  065%=      5-min Rain = 0
KMC1 260220Z 14006KT 26/19 A2998 RMK A01 T02580189  RH  065%=      5-min Rain = 0
KMC1 260221Z 14009KT 26/19 A2998 RMK A01 T02580189  RH  066%=      5-min Rain = 0
KMC1 260222Z 14005KT 26/19 A2998 RMK A01 T02580189  RH  065%=      5-min Rain = 0
KMC1 260223Z 14006KT 26/19 A2998 RMK A01 T02590189  RH  066%=      5-min Rain = 0
KMC1 260224Z 14007KT 26/19 A2998 RMK A01 T02580189  RH  066%=      5-min Rain = 0
KMC1 260225Z 14010KT 26/19 A2998 RMK A01 T02580189  RH  066%=      5-min Rain = 0
KMC1 260226Z 14008KT 26/19 A2998 RMK A01 T02580189  RH  066%=      5-min Rain = 0
KMC1 260227Z 14006G11KT 26/19 A2998 RMK A01 T02580189  RH  066%=      5-min Rain = 0
KMC1 260228Z 14009KT 26/19 A2998 RMK A01 T02580189  RH  066%=      5-min Rain = 0
KMC1 260229Z 14011KT 26/19 A2998 RMK A01 T02580189  RH  066%=      5-min Rain = 0
KMC1 260230Z 14008G14KT 26/19 A2998 RMK A01 T02590189  RH  065%=      5-min Rain = 0
KMC1 260231Z 14006KT 26/19 A2998 RMK A01 T02590189  RH  065%=      5-min Rain = 0
KMC1 260232Z 15007KT 26/19 A2999 RMK A01 T02590190  RH  065%=      5-min Rain = 0
KMC1 260233Z 14010KT 26/19 A2999 RMK A01 T02590190  RH  066%=      5-min Rain = 0
KMC1 260234Z 13009KT 26/19 A2999 RMK A01 T02590190  RH  066%=      5-min Rain = 0
KMC1 260235Z 15007G13KT 26/19 A2999 RMK A01 T02590190  RH  066%=      5-min Rain = 0
KMC1 260236Z 15009KT 26/19 A2999 RMK A01 T02600190  RH  066%=      5-min Rain = 0
KMC1 260237Z 15009KT 26/19 A2999 RMK A01 T02590190  RH  065%=      5-min Rain = 0
KMC1 260238Z 14006KT 26/19 A2999 RMK A01 T02590190  RH  065%=      5-min Rain = 0
KMC1 260239Z 14006KT 26/19 A2999 RMK A01 T02590191  RH  066%=      5-min Rain = 0
KMC1 260240Z 14007KT 26/19 A2999 RMK A01 T02590190  RH  066%=      5-min Rain = 0
KMC1 260241Z 14009KT 26/19 A2999 RMK A01 T02580191  RH  066%=      5-min Rain = 0
KMC1 260242Z 15006KT 26/19 A30 RMK A01 T02580190  RH  066%=      5-min Rain = 0
KMC1 260243Z 14009KT 26/19 A30 RMK A01 T02580190  RH  066%=      5-min Rain = 0
KMC1 260244Z 15006KT 26/19 A30 RMK A01 T02580190  RH  066%=      5-min Rain = 0
KMC1 260245Z 13007KT 26/19 A30 RMK A01 T02590190  RH  066%=      5-min Rain = 0
KMC1 260246Z 14005KT 26/19 A30 RMK A01 T02580191  RH  066%=      5-min Rain = 0
KMC1 260247Z 14005KT 26/19 A30 RMK A01 T02580191  RH  066%=      5-min Rain = 0
KMC1 260248Z 14008KT 26/19 A30 RMK A01 T02570191  RH  067%=      5-min Rain = 0
KMC1 260249Z 15007KT 26/19 A30 RMK A01 T02570191  RH  067%=      5-min Rain = 0
KMC1 260250Z 14006KT 26/19 A30 RMK A01 T02570190  RH  067%=      5-min Rain = 0
KMC1 260251Z 13005KT 26/19 A30 RMK A01 T02570191  RH  067%=      5-min Rain = 0
KMC1 260252Z 13007KT 26/19 A30 RMK A01 T02570191  RH  067%=      5-min Rain = 0
KMC1 260253Z 14007KT 26/19 A30 RMK A01 T02560191  RH  067%=      5-min Rain = 0
KMC1 260254Z 14005KT 26/19 A30 RMK A01 T02560191  RH  067%=      5-min Rain = 0
KMC1 260255Z 14006KT 26/19 A30 RMK A01 T02560191  RH  067%=      5-min Rain = 0
KMC1 260256Z 14006KT 26/19 A30 RMK A01 T02560191  RH  067%=      5-min Rain = 0
KMC1 260257Z 14008KT 26/19 A30 RMK A01 T02560191  RH  067%=      5-min Rain = 0
KMC1 260258Z 13007KT 26/19 A30 RMK A01 T02560191  RH  067%=      5-min Rain = 0
KMC1 260259Z 13009G14KT 26/19 A2999 RMK A01 T02560192  RH  068%=      5-min Rain = 0
KMC1 260300Z 13009G14KT 26/19 A2999 RMK A01 T02560191  RH  068%=      5-min Rain = 0
KMC1 260301Z 13011KT 26/19 A2999 RMK A01 T02560191  RH  068%=      5-min Rain = 0
KMC1 260302Z 14011KT 26/19 A2999 RMK A01 T02560192  RH  068%=      5-min Rain = 0
KMC1 260303Z 14008KT 26/19 A2999 RMK A01 T02570192  RH  068%=      5-min Rain = 0
KMC1 260304Z 14007KT 26/19 A2999 RMK A01 T02560193  RH  068%=      5-min Rain = 0
KMC1 260305Z 15010KT 26/19 A2999 RMK A01 T02550192  RH  068%=      5-min Rain = 0
KMC1 260306Z 14009KT 26/19 A2999 RMK A01 T02550193  RH  068%=      5-min Rain = 0
KMC1 260307Z 14007G12KT 25/19 A2999 RMK A01 T02540192  RH  069%=      5-min Rain = 0
KMC1 260308Z 14007KT 25/19 A2999 RMK A01 T02540193  RH  069%=      5-min Rain = 0
KMC1 260309Z 14007KT 25/19 A2999 RMK A01 T02540193  RH  069%=      5-min Rain = 0
KMC1 260310Z 13010KT 25/19 A2999 RMK A01 T02540193  RH  069%=      5-min Rain = 0
KMC1 260311Z 14011G17KT 25/19 A2999 RMK A01 T02530193  RH  069%=      5-min Rain = 0
KMC1 260312Z 14012KT 25/19 A2999 RMK A01 T02530193  RH  069%=      5-min Rain = 0
KMC1 260313Z 14010KT 25/19 A2999 RMK A01 T02540193  RH  069%=      5-min Rain = 0
KMC1 260314Z 14010G15KT 25/19 A2999 RMK A01 T02540193  RH  069%=      5-min Rain = 0
KMC1 260315Z 14008G13KT 25/19 A2999 RMK A01 T02540194  RH  069%=      5-min Rain = 0
KMC1 260316Z 14007G13KT 25/19 A2999 RMK A01 T02540194  RH  069%=      5-min Rain = 0
KMC1 260317Z 14007KT 25/19 A2999 RMK A01 T02530194  RH  069%=      5-min Rain = 0
KMC1 260318Z 13008KT 25/19 A2999 RMK A01 T02530193  RH  070%=      5-min Rain = 0
KMC1 260319Z 13013G18KT 25/19 A2999 RMK A01 T02520193  RH  070%=      5-min Rain = 0
KMC1 260320Z 14012KT 25/19 A2999 RMK A01 T02520193  RH  070%=      5-min Rain = 0
KMC1 260321Z 14012KT 25/19 A2999 RMK A01 T02530193  RH  069%=      5-min Rain = 0
KMC1 260322Z 14011KT 25/19 A2999 RMK A01 T02530193  RH  069%=      5-min Rain = 0
KMC1 260323Z 14010KT 25/19 A2999 RMK A01 T02530193  RH  069%=      5-min Rain = 0
KMC1 260324Z 13013KT 25/19 A2999 RMK A01 T02530193  RH  069%=      5-min Rain = 0
KMC1 260325Z 14013G18KT 25/19 A2999 RMK A01 T02540193  RH  069%=      5-min Rain = 0
KMC1 260326Z 13010KT 25/19 A2999 RMK A01 T02530193  RH  069%=      5-min Rain = 0
KMC1 260327Z 13012KT 25/19 A2999 RMK A01 T02530193  RH  069%=      5-min Rain = 0
KMC1 260328Z 14016G21KT 25/19 A2999 RMK A01 T02530193  RH  069%=      5-min Rain = 0
KMC1 260329Z 15014KT 25/19 A2999 RMK A01 T02530193  RH  069%=      5-min Rain = 0
KMC1 260330Z 13010KT 25/19 A2999 RMK A01 T02530193  RH  069%=      5-min Rain = 0
KMC1 260331Z 13011KT 25/19 A2999 RMK A01 T02540193  RH  069%=      5-min Rain = 0
KMC1 260332Z 14014KT 25/19 A2999 RMK A01 T02530193  RH  069%=      5-min Rain = 0
KMC1 260333Z 13013KT 25/19 A2999 RMK A01 T02530193  RH  069%=      5-min Rain = 0
KMC1 260334Z 13009KT 25/19 A30 RMK A01 T02530193  RH  069%=      5-min Rain = 0
KMC1 260335Z 13007KT 25/19 A30 RMK A01 T02530193  RH  070%=      5-min Rain = 0
KMC1 260336Z 12012KT 25/19 A30 RMK A01 T02520193  RH  070%=      5-min Rain = 0
KMC1 260337Z 13013KT 25/19 A30 RMK A01 T02520193  RH  070%=      5-min Rain = 0
KMC1 260338Z 13011KT 25/19 A30 RMK A01 T02520193  RH  070%=      5-min Rain = 0
KMC1 260339Z 12013KT 25/19 A30 RMK A01 T02520193  RH  070%=      5-min Rain = 0
KMC1 260340Z 12011KT 25/19 A30 RMK A01 T02510192  RH  070%=      5-min Rain = 0
KMC1 260341Z 13012G17KT 25/19 A30 RMK A01 T02510192  RH  070%=      5-min Rain = 0
KMC1 260342Z 13011G18KT 25/19 A30 RMK A01 T02510192  RH  070%=      5-min Rain = 0
KMC1 260343Z 13012G20KT 25/19 A30 RMK A01 T02510192  RH  070%=      5-min Rain = 0
KMC1 260344Z 13013G18KT 25/19 A30 RMK A01 T02510192  RH  070%=      5-min Rain = 0
KMC1 260345Z 12011KT 25/19 A30 RMK A01 T02510192  RH  070%=      5-min Rain = 0
KMC1 260346Z 13010KT 25/19 A30 RMK A01 T02510192  RH  070%=      5-min Rain = 0
KMC1 260347Z 13011KT 25/19 A30 RMK A01 T02500192  RH  070%=      5-min Rain = 0
KMC1 260348Z 12013G18KT 25/19 A30 RMK A01 T02500192  RH  070%=      5-min Rain = 0
KMC1 260349Z 12012KT 25/19 A30 RMK A01 T02500192  RH  070%=      5-min Rain = 0
KMC1 260350Z 12011KT 25/19 A30 RMK A01 T02490191  RH  070%=      5-min Rain = 0
KMC1 260351Z 14014G19KT 25/19 A3001 RMK A01 T02490191  RH  070%=      5-min Rain = 0
KMC1 260352Z 13010G17KT 25/19 A3001 RMK A01 T02490191  RH  070%=      5-min Rain = 0
KMC1 260353Z 13013KT 25/19 A3001 RMK A01 T02490191  RH  070%=      5-min Rain = 0
KMC1 260354Z 13012G18KT 25/19 A3001 RMK A01 T02490190  RH  070%=      5-min Rain = 0
KMC1 260355Z 13011G19KT 25/19 A3001 RMK A01 T02490191  RH  070%=      5-min Rain = 0
KMC1 260356Z 13013G19KT 25/19 A3001 RMK A01 T02480190  RH  070%=      5-min Rain = 0
KMC1 260357Z 13013KT 25/19 A3001 RMK A01 T02480190  RH  070%=      5-min Rain = 0
KMC1 260358Z 14012KT 25/19 A3001 RMK A01 T02480190  RH  070%=      5-min Rain = 0
KMC1 260359Z 14013G20KT 25/19 A3001 RMK A01 T02480190  RH  070%=      5-min Rain = 0
KMC1 260400Z 13013KT 25/19 A3001 RMK A01 T02480190  RH  070%=      5-min Rain = 0
KMC1 260401Z 13014G19KT 25/19 A3001 RMK A01 T02480190  RH  070%=      5-min Rain = 0
KMC1 260402Z 13015G21KT 25/19 A3001 RMK A01 T02480190  RH  070%=      5-min Rain = 0
KMC1 260403Z 14014G20KT 25/19 A3001 RMK A01 T02480190  RH  070%=      5-min Rain = 0
KMC1 260404Z 14016KT 25/19 A3001 RMK A01 T02480190  RH  070%=      5-min Rain = 0
KMC1 260405Z 14012KT 25/19 A3001 RMK A01 T02480190  RH  070%=      5-min Rain = 0
KMC1 260406Z 14012KT 25/19 A3001 RMK A01 T02480190  RH  070%=      5-min Rain = 0
KMC1 260407Z 14017KT 25/19 A3001 RMK A01 T02470190  RH  070%=      5-min Rain = 0
KMC1 260408Z 14011G18KT 25/19 A3001 RMK A01 T02480190  RH  070%=      5-min Rain = 0
KMC1 260409Z 14016G25KT 25/19 A3001 RMK A01 T02470190  RH  070%=      5-min Rain = 0
KMC1 260410Z 14012KT 25/19 A3001 RMK A01 T02470190  RH  070%=      5-min Rain = 0
KMC1 260411Z 14012KT 25/19 A3001 RMK A01 T02470190  RH  071%=      5-min Rain = 0
KMC1 260412Z 15012G18KT 25/19 A3001 RMK A01 T02460190  RH  071%=      5-min Rain = 0
KMC1 260413Z 13011G16KT 25/19 A3001 RMK A01 T02460190  RH  071%=      5-min Rain = 0
KMC1 260414Z 13013KT 25/19 A3001 RMK A01 T02460190  RH  071%=      5-min Rain = 0
KMC1 260415Z 13007KT 25/19 A3001 RMK A01 T02450190  RH  071%=      5-min Rain = 0
KMC1 260416Z 14009KT 25/19 A3001 RMK A01 T02450190  RH  071%=      5-min Rain = 0
KMC1 260417Z 13006KT 24/19 A3001 RMK A01 T02440190  RH  072%=      5-min Rain = 0
KMC1 260418Z 14009KT 24/19 A3001 RMK A01 T02440190  RH  072%=      5-min Rain = 0
KMC1 260419Z 14010KT 24/19 A3001 RMK A01 T02430190  RH  072%=      5-min Rain = 0
KMC1 260420Z 13007KT 24/19 A3002 RMK A01 T02430190  RH  072%=      5-min Rain = 0
KMC1 260421Z 13007KT 24/19 A3002 RMK A01 T02430190  RH  073%=      5-min Rain = 0
KMC1 260422Z 12007KT 24/19 A3002 RMK A01 T02420190  RH  073%=      5-min Rain = 0
KMC1 260423Z 13008G14KT 24/19 A3002 RMK A01 T02420190  RH  073%=      5-min Rain = 0
KMC1 260424Z 14009G14KT 24/19 A3002 RMK A01 T02410190  RH  073%=      5-min Rain = 0
KMC1 260425Z 14011G16KT 24/19 A3002 RMK A01 T02410190  RH  073%=      5-min Rain = 0
KMC1 260426Z 13012KT 24/19 A3002 RMK A01 T02420190  RH  073%=      5-min Rain = 0
KMC1 260427Z 13008KT 24/19 A3002 RMK A01 T02420190  RH  072%=      5-min Rain = 0
KMC1 260428Z 14007KT 24/19 A3002 RMK A01 T02430191  RH  073%=      5-min Rain = 0
KMC1 260429Z 13007KT 24/19 A3002 RMK A01 T02430191  RH  073%=      5-min Rain = 0
KMC1 260430Z 13007KT 24/19 A3002 RMK A01 T02420191  RH  073%=      5-min Rain = 0
KMC1 260431Z 13008KT 24/19 A3002 RMK A01 T02420191  RH  073%=      5-min Rain = 0
KMC1 260432Z 14007KT 24/19 A3002 RMK A01 T02410191  RH  073%=      5-min Rain = 0
KMC1 260433Z 14008G14KT 24/19 A3002 RMK A01 T02410191  RH  074%=      5-min Rain = 0
KMC1 260434Z 13008KT 24/19 A3002 RMK A01 T02400190  RH  074%=      5-min Rain = 0
KMC1 260435Z 13007KT 24/19 A3002 RMK A01 T02410191  RH  074%=      5-min Rain = 0
KMC1 260436Z 13006KT 24/19 A3002 RMK A01 T02410190  RH  073%=      5-min Rain = 0
KMC1 260437Z 13007KT 24/19 A3002 RMK A01 T02410191  RH  074%=      5-min Rain = 0
KMC1 260438Z 12010KT 24/19 A3002 RMK A01 T02410191  RH  074%=      5-min Rain = 0
KMC1 260439Z 14006KT 24/19 A3002 RMK A01 T02400191  RH  074%=      5-min Rain = 0
KMC1 260440Z 14006KT 24/19 A3002 RMK A01 T02400191  RH  074%=      5-min Rain = 0
KMC1 260441Z 14007KT 24/19 A3002 RMK A01 T02390191  RH  074%=      5-min Rain = 0
KMC1 260442Z 12009KT 24/19 A3002 RMK A01 T02390191  RH  074%=      5-min Rain = 0
KMC1 260443Z 13011KT 24/19 A3002 RMK A01 T02390191  RH  074%=      5-min Rain = 0
KMC1 260444Z 14010KT 24/19 A3002 RMK A01 T02400191  RH  074%=      5-min Rain = 0
KMC1 260445Z 13012G18KT 24/19 A3002 RMK A01 T02400191  RH  074%=      5-min Rain = 0
KMC1 260446Z 13011KT 24/19 A3002 RMK A01 T02400191  RH  074%=      5-min Rain = 0
KMC1 260447Z 13010KT 24/19 A3002 RMK A01 T02400191  RH  074%=      5-min Rain = 0
KMC1 260448Z 14008KT 24/19 A3002 RMK A01 T02400191  RH  074%=      5-min Rain = 0
KMC1 260449Z 14009KT 24/19 A3002 RMK A01 T02400191  RH  074%=      5-min Rain = 0
KMC1 260450Z 14007G12KT 24/19 A3002 RMK A01 T02390191  RH  075%=      5-min Rain = 0
KMC1 260451Z 14010G15KT 24/19 A3002 RMK A01 T02390191  RH  075%=      5-min Rain = 0
KMC1 260452Z 14010KT 24/19 A3002 RMK A01 T02390191  RH  075%=      5-min Rain = 0
KMC1 260453Z 14008G13KT 24/19 A3002 RMK A01 T02390191  RH  075%=      5-min Rain = 0
KMC1 260454Z 15008KT 24/19 A3002 RMK A01 T02390192  RH  075%=      5-min Rain = 0
KMC1 260455Z 14008KT 24/19 A3002 RMK A01 T02380192  RH  075%=      5-min Rain = 0
KMC1 260456Z 14007KT 24/19 A3002 RMK A01 T02380192  RH  075%=      5-min Rain = 0
KMC1 260457Z 13010KT 24/19 A3002 RMK A01 T02380192  RH  075%=      5-min Rain = 0
KMC1 260458Z 14006KT 24/19 A3002 RMK A01 T02380191  RH  075%=      5-min Rain = 0
KMC1 260459Z 13006KT 24/19 A3003 RMK A01 T02380192  RH  075%=      5-min Rain = 0

Page generated in 0.1218 seconds.